<?xml version='1.0' encoding='UTF-8'?><gpx version="1.1" creator="JPX - https://github.com/jenetics/jpx" xmlns="http://www.topografix.com/GPX/1/1"><trk><trkseg><trkpt lat="45.501827" lon="9.0942446"><ele>137.0</ele><time>2026-04-19T09:43:23.846Z</time></trkpt><trkpt lat="45.501752" lon="9.0942647"><ele>137.0</ele><time>2026-04-19T09:43:25.846Z</time></trkpt><trkpt lat="45.5017271" lon="9.0943898"><ele>137.0</ele><time>2026-04-19T09:43:28.846Z</time></trkpt><trkpt lat="45.5017885" lon="9.094462"><ele>137.0</ele><time>2026-04-19T09:43:30.846Z</time></trkpt><trkpt lat="45.501861" lon="9.0944941"><ele>137.0</ele><time>2026-04-19T09:43:32.846Z</time></trkpt><trkpt lat="45.5019182" lon="9.0945551"><ele>137.0</ele><time>2026-04-19T09:43:35.846Z</time></trkpt><trkpt lat="45.5019523" lon="9.0946401"><ele>137.0</ele><time>2026-04-19T09:43:41.846Z</time></trkpt><trkpt lat="45.5018781" lon="9.0947052"><ele>137.0</ele><time>2026-04-19T09:43:43.846Z</time></trkpt><trkpt lat="45.5017657" lon="9.094773"><ele>137.0</ele><time>2026-04-19T09:43:45.846Z</time></trkpt><trkpt lat="45.5016966" lon="9.0948208"><ele>137.0</ele><time>2026-04-19T09:43:46.846Z</time></trkpt><trkpt lat="45.5016266" lon="9.0948716"><ele>137.0</ele><time>2026-04-19T09:43:47.846Z</time></trkpt><trkpt lat="45.5015518" lon="9.0949258"><ele>137.0</ele><time>2026-04-19T09:43:48.846Z</time></trkpt><trkpt lat="45.5014745" lon="9.0949785"><ele>137.4</ele><time>2026-04-19T09:43:49.846Z</time></trkpt><trkpt lat="45.5013913" lon="9.0950422"><ele>137.79999999999998</ele><time>2026-04-19T09:43:50.847Z</time></trkpt><trkpt lat="45.5013145" lon="9.0951031"><ele>138.2</ele><time>2026-04-19T09:43:51.846Z</time></trkpt><trkpt lat="45.501237" lon="9.0951629"><ele>138.6</ele><time>2026-04-19T09:43:52.846Z</time></trkpt><trkpt lat="45.5011558" lon="9.0952245"><ele>139.0</ele><time>2026-04-19T09:43:53.846Z</time></trkpt><trkpt lat="45.5010759" lon="9.0952823"><ele>139.4</ele><time>2026-04-19T09:43:54.846Z</time></trkpt><trkpt lat="45.5009965" lon="9.0953435"><ele>139.8</ele><time>2026-04-19T09:43:55.847Z</time></trkpt><trkpt lat="45.5009193" lon="9.0954059"><ele>140.2</ele><time>2026-04-19T09:43:56.846Z</time></trkpt><trkpt lat="45.5008382" lon="9.0954671"><ele>140.6</ele><time>2026-04-19T09:43:57.847Z</time></trkpt><trkpt lat="45.5007602" lon="9.095536"><ele>141.0</ele><time>2026-04-19T09:43:58.846Z</time></trkpt><trkpt lat="45.500686" lon="9.0956015"><ele>141.0</ele><time>2026-04-19T09:43:59.846Z</time></trkpt><trkpt lat="45.5006157" lon="9.0956713"><ele>141.0</ele><time>2026-04-19T09:44:00.846Z</time></trkpt><trkpt lat="45.5005516" lon="9.0957383"><ele>141.0</ele><time>2026-04-19T09:44:01.846Z</time></trkpt><trkpt lat="45.5004905" lon="9.0958056"><ele>141.0</ele><time>2026-04-19T09:44:02.846Z</time></trkpt><trkpt lat="45.5004294" lon="9.0958765"><ele>141.0</ele><time>2026-04-19T09:44:03.847Z</time></trkpt><trkpt lat="45.5003691" lon="9.0959534"><ele>141.0</ele><time>2026-04-19T09:44:04.846Z</time></trkpt><trkpt lat="45.5003193" lon="9.0960357"><ele>141.0</ele><time>2026-04-19T09:44:05.846Z</time></trkpt><trkpt lat="45.5002542" lon="9.0961241"><ele>141.0</ele><time>2026-04-19T09:44:06.846Z</time></trkpt><trkpt lat="45.5001991" lon="9.0962349"><ele>141.0</ele><time>2026-04-19T09:44:07.846Z</time></trkpt><trkpt lat="45.5001404" lon="9.0963161"><ele>141.0</ele><time>2026-04-19T09:44:08.845Z</time></trkpt><trkpt lat="45.5000905" lon="9.0963814"><ele>141.0</ele><time>2026-04-19T09:44:09.846Z</time></trkpt><trkpt lat="45.5000413" lon="9.0964515"><ele>141.0</ele><time>2026-04-19T09:44:10.846Z</time></trkpt><trkpt lat="45.4999848" lon="9.096551"><ele>140.25</ele><time>2026-04-19T09:44:11.846Z</time></trkpt><trkpt lat="45.4999097" lon="9.096693"><ele>139.5</ele><time>2026-04-19T09:44:12.846Z</time></trkpt><trkpt lat="45.4998337" lon="9.0968513"><ele>138.75</ele><time>2026-04-19T09:44:13.846Z</time></trkpt><trkpt lat="45.4997147" lon="9.0970605"><ele>138.0</ele><time>2026-04-19T09:44:14.846Z</time></trkpt><trkpt lat="45.499622" lon="9.0972583"><ele>136.75</ele><time>2026-04-19T09:44:15.846Z</time></trkpt><trkpt lat="45.4995387" lon="9.0974061"><ele>135.5</ele><time>2026-04-19T09:44:16.847Z</time></trkpt><trkpt lat="45.4994468" lon="9.0975625"><ele>134.25</ele><time>2026-04-19T09:44:17.846Z</time></trkpt><trkpt lat="45.4993651" lon="9.097708"><ele>133.0</ele><time>2026-04-19T09:44:18.847Z</time></trkpt><trkpt lat="45.4992976" lon="9.0978326"><ele>133.0</ele><time>2026-04-19T09:44:19.846Z</time></trkpt><trkpt lat="45.4992256" lon="9.0979518"><ele>133.0</ele><time>2026-04-19T09:44:20.846Z</time></trkpt><trkpt lat="45.4991482" lon="9.0980618"><ele>133.0</ele><time>2026-04-19T09:44:21.845Z</time></trkpt><trkpt lat="45.4990807" lon="9.0981705"><ele>133.0</ele><time>2026-04-19T09:44:22.846Z</time></trkpt><trkpt lat="45.4990202" lon="9.0982648"><ele>133.0</ele><time>2026-04-19T09:44:23.846Z</time></trkpt><trkpt lat="45.4989693" lon="9.0983603"><ele>133.25</ele><time>2026-04-19T09:44:24.845Z</time></trkpt><trkpt lat="45.4989031" lon="9.0985019"><ele>133.5</ele><time>2026-04-19T09:44:26.846Z</time></trkpt><trkpt lat="45.4988026" lon="9.0986395"><ele>133.75</ele><time>2026-04-19T09:44:28.846Z</time></trkpt><trkpt lat="45.4987344" lon="9.098716"><ele>134.0</ele><time>2026-04-19T09:44:29.845Z</time></trkpt><trkpt lat="45.4986471" lon="9.0987984"><ele>134.25</ele><time>2026-04-19T09:44:30.846Z</time></trkpt><trkpt lat="45.4985576" lon="9.0988834"><ele>134.5</ele><time>2026-04-19T09:44:31.846Z</time></trkpt><trkpt lat="45.4984574" lon="9.0989839"><ele>134.75</ele><time>2026-04-19T09:44:32.845Z</time></trkpt><trkpt lat="45.4983497" lon="9.0990965"><ele>135.0</ele><time>2026-04-19T09:44:33.845Z</time></trkpt><trkpt lat="45.4982377" lon="9.0992174"><ele>135.0</ele><time>2026-04-19T09:44:34.846Z</time></trkpt><trkpt lat="45.4981259" lon="9.0993424"><ele>135.0</ele><time>2026-04-19T09:44:35.846Z</time></trkpt><trkpt lat="45.4980085" lon="9.0994749"><ele>135.0</ele><time>2026-04-19T09:44:36.846Z</time></trkpt><trkpt lat="45.4978937" lon="9.0996049"><ele>135.0</ele><time>2026-04-19T09:44:37.846Z</time></trkpt><trkpt lat="45.4977848" lon="9.0997301"><ele>135.0</ele><time>2026-04-19T09:44:38.845Z</time></trkpt><trkpt lat="45.4976791" lon="9.0998512"><ele>135.0</ele><time>2026-04-19T09:44:39.845Z</time></trkpt><trkpt lat="45.4975684" lon="9.0999727"><ele>135.0</ele><time>2026-04-19T09:44:40.846Z</time></trkpt><trkpt lat="45.4974621" lon="9.1000959"><ele>135.0</ele><time>2026-04-19T09:44:41.846Z</time></trkpt><trkpt lat="45.4973603" lon="9.1002236"><ele>135.25</ele><time>2026-04-19T09:44:42.846Z</time></trkpt><trkpt lat="45.4972593" lon="9.1003394"><ele>135.5</ele><time>2026-04-19T09:44:43.846Z</time></trkpt><trkpt lat="45.4971585" lon="9.1004704"><ele>135.75</ele><time>2026-04-19T09:44:44.846Z</time></trkpt><trkpt lat="45.4970656" lon="9.1006016"><ele>136.0</ele><time>2026-04-19T09:44:45.845Z</time></trkpt><trkpt lat="45.4969765" lon="9.1007231"><ele>136.5</ele><time>2026-04-19T09:44:46.846Z</time></trkpt><trkpt lat="45.4968926" lon="9.1008479"><ele>137.0</ele><time>2026-04-19T09:44:47.845Z</time></trkpt><trkpt lat="45.4968029" lon="9.1009821"><ele>137.5</ele><time>2026-04-19T09:44:48.846Z</time></trkpt><trkpt lat="45.4967314" lon="9.1010957"><ele>138.0</ele><time>2026-04-19T09:44:49.845Z</time></trkpt><trkpt lat="45.4966549" lon="9.1012158"><ele>138.0</ele><time>2026-04-19T09:44:50.846Z</time></trkpt><trkpt lat="45.4965842" lon="9.1013449"><ele>138.0</ele><time>2026-04-19T09:44:51.846Z</time></trkpt><trkpt lat="45.4965178" lon="9.101478"><ele>138.0</ele><time>2026-04-19T09:44:52.845Z</time></trkpt><trkpt lat="45.4964434" lon="9.1015973"><ele>138.0</ele><time>2026-04-19T09:44:53.845Z</time></trkpt><trkpt lat="45.4963843" lon="9.101694"><ele>138.0</ele><time>2026-04-19T09:44:54.845Z</time></trkpt><trkpt lat="45.4963407" lon="9.1017911"><ele>138.20000000000002</ele><time>2026-04-19T09:44:55.846Z</time></trkpt><trkpt lat="45.4963001" lon="9.1019122"><ele>138.4</ele><time>2026-04-19T09:44:56.845Z</time></trkpt><trkpt lat="45.4962299" lon="9.1020385"><ele>138.60000000000002</ele><time>2026-04-19T09:44:57.846Z</time></trkpt><trkpt lat="45.4961651" lon="9.1021626"><ele>138.8</ele><time>2026-04-19T09:44:58.846Z</time></trkpt><trkpt lat="45.4960999" lon="9.1022952"><ele>139.0</ele><time>2026-04-19T09:44:59.846Z</time></trkpt><trkpt lat="45.4960395" lon="9.1024239"><ele>138.6</ele><time>2026-04-19T09:45:00.846Z</time></trkpt><trkpt lat="45.4959823" lon="9.102555"><ele>138.2</ele><time>2026-04-19T09:45:01.846Z</time></trkpt><trkpt lat="45.4959404" lon="9.1026714"><ele>137.79999999999998</ele><time>2026-04-19T09:45:02.845Z</time></trkpt><trkpt lat="45.4958873" lon="9.102801"><ele>137.4</ele><time>2026-04-19T09:45:03.845Z</time></trkpt><trkpt lat="45.4958329" lon="9.1029304"><ele>137.0</ele><time>2026-04-19T09:45:04.845Z</time></trkpt><trkpt lat="45.4957662" lon="9.1030587"><ele>137.0</ele><time>2026-04-19T09:45:05.847Z</time></trkpt><trkpt lat="45.495712" lon="9.1031788"><ele>137.0</ele><time>2026-04-19T09:45:06.846Z</time></trkpt><trkpt lat="45.4956575" lon="9.1032948"><ele>137.0</ele><time>2026-04-19T09:45:07.845Z</time></trkpt><trkpt lat="45.4956095" lon="9.1034159"><ele>137.0</ele><time>2026-04-19T09:45:08.846Z</time></trkpt><trkpt lat="45.4955567" lon="9.1035499"><ele>137.0</ele><time>2026-04-19T09:45:09.845Z</time></trkpt><trkpt lat="45.4955057" lon="9.103675"><ele>136.79999999999998</ele><time>2026-04-19T09:45:10.845Z</time></trkpt><trkpt lat="45.4954606" lon="9.1038013"><ele>136.6</ele><time>2026-04-19T09:45:11.846Z</time></trkpt><trkpt lat="45.4954164" lon="9.1039316"><ele>136.39999999999998</ele><time>2026-04-19T09:45:12.846Z</time></trkpt><trkpt lat="45.4953736" lon="9.104045"><ele>136.2</ele><time>2026-04-19T09:45:13.845Z</time></trkpt><trkpt lat="45.4953131" lon="9.104195"><ele>136.0</ele><time>2026-04-19T09:45:15.846Z</time></trkpt><trkpt lat="45.4952752" lon="9.1042926"><ele>135.8</ele><time>2026-04-19T09:45:17.846Z</time></trkpt><trkpt lat="45.4952337" lon="9.1044274"><ele>135.6</ele><time>2026-04-19T09:45:20.846Z</time></trkpt><trkpt lat="45.495168" lon="9.1045815"><ele>135.4</ele><time>2026-04-19T09:45:22.846Z</time></trkpt><trkpt lat="45.4951156" lon="9.1046799"><ele>135.2</ele><time>2026-04-19T09:45:23.846Z</time></trkpt><trkpt lat="45.4950626" lon="9.1047895"><ele>135.0</ele><time>2026-04-19T09:45:24.847Z</time></trkpt><trkpt lat="45.495009" lon="9.1048912"><ele>135.0</ele><time>2026-04-19T09:45:25.846Z</time></trkpt><trkpt lat="45.494977" lon="9.104991"><ele>135.0</ele><time>2026-04-19T09:45:26.845Z</time></trkpt><trkpt lat="45.49493" lon="9.1050826"><ele>135.0</ele><time>2026-04-19T09:45:27.847Z</time></trkpt><trkpt lat="45.4948871" lon="9.1051705"><ele>135.0</ele><time>2026-04-19T09:45:28.846Z</time></trkpt><trkpt lat="45.4948422" lon="9.1052545"><ele>135.0</ele><time>2026-04-19T09:45:29.845Z</time></trkpt><trkpt lat="45.4947999" lon="9.1053408"><ele>135.0</ele><time>2026-04-19T09:45:30.845Z</time></trkpt><trkpt lat="45.4947558" lon="9.1054182"><ele>135.0</ele><time>2026-04-19T09:45:31.847Z</time></trkpt><trkpt lat="45.4946838" lon="9.105548"><ele>135.0</ele><time>2026-04-19T09:45:33.846Z</time></trkpt><trkpt lat="45.4946361" lon="9.1056241"><ele>135.0</ele><time>2026-04-19T09:45:35.845Z</time></trkpt><trkpt lat="45.4945436" lon="9.1056804"><ele>135.0</ele><time>2026-04-19T09:45:37.845Z</time></trkpt><trkpt lat="45.4944495" lon="9.1057373"><ele>135.0</ele><time>2026-04-19T09:45:39.846Z</time></trkpt><trkpt lat="45.4944419" lon="9.1058551"><ele>135.0</ele><time>2026-04-19T09:45:41.845Z</time></trkpt><trkpt lat="45.4945237" lon="9.105903"><ele>135.0</ele><time>2026-04-19T09:45:43.845Z</time></trkpt><trkpt lat="45.4945865" lon="9.1058709"><ele>135.16666666666666</ele><time>2026-04-19T09:45:44.846Z</time></trkpt><trkpt lat="45.4946586" lon="9.1058478"><ele>135.33333333333334</ele><time>2026-04-19T09:45:45.846Z</time></trkpt><trkpt lat="45.4947341" lon="9.1058456"><ele>135.5</ele><time>2026-04-19T09:45:46.846Z</time></trkpt><trkpt lat="45.4948111" lon="9.1058751"><ele>135.66666666666669</ele><time>2026-04-19T09:45:47.846Z</time></trkpt><trkpt lat="45.494893" lon="9.1059183"><ele>135.83333333333334</ele><time>2026-04-19T09:45:48.847Z</time></trkpt><trkpt lat="45.4949797" lon="9.1059666"><ele>136.0</ele><time>2026-04-19T09:45:49.845Z</time></trkpt><trkpt lat="45.4950646" lon="9.1060137"><ele>136.0</ele><time>2026-04-19T09:45:50.846Z</time></trkpt><trkpt lat="45.4951551" lon="9.1060612"><ele>136.0</ele><time>2026-04-19T09:45:51.846Z</time></trkpt><trkpt lat="45.49525" lon="9.106109"><ele>136.0</ele><time>2026-04-19T09:45:52.846Z</time></trkpt><trkpt lat="45.4953475" lon="9.1061598"><ele>136.0</ele><time>2026-04-19T09:45:53.846Z</time></trkpt><trkpt lat="45.4954355" lon="9.1062193"><ele>136.0</ele><time>2026-04-19T09:45:54.845Z</time></trkpt><trkpt lat="45.4955172" lon="9.1062759"><ele>137.4</ele><time>2026-04-19T09:45:55.846Z</time></trkpt><trkpt lat="45.4955951" lon="9.1063232"><ele>138.8</ele><time>2026-04-19T09:45:56.846Z</time></trkpt><trkpt lat="45.495679" lon="9.1063758"><ele>140.20000000000002</ele><time>2026-04-19T09:45:57.846Z</time></trkpt><trkpt lat="45.4957703" lon="9.1064355"><ele>141.6</ele><time>2026-04-19T09:45:58.845Z</time></trkpt><trkpt lat="45.4958717" lon="9.1064778"><ele>143.0</ele><time>2026-04-19T09:45:59.847Z</time></trkpt><trkpt lat="45.4959758" lon="9.1065175"><ele>143.0</ele><time>2026-04-19T09:46:00.846Z</time></trkpt><trkpt lat="45.4960844" lon="9.1065399"><ele>143.0</ele><time>2026-04-19T09:46:01.846Z</time></trkpt><trkpt lat="45.4961927" lon="9.1065525"><ele>143.0</ele><time>2026-04-19T09:46:02.845Z</time></trkpt><trkpt lat="45.4962935" lon="9.1065571"><ele>143.0</ele><time>2026-04-19T09:46:03.846Z</time></trkpt><trkpt lat="45.4963954" lon="9.1065631"><ele>143.0</ele><time>2026-04-19T09:46:04.845Z</time></trkpt><trkpt lat="45.4964968" lon="9.106576"><ele>141.6</ele><time>2026-04-19T09:46:05.846Z</time></trkpt><trkpt lat="45.4965943" lon="9.1065877"><ele>140.20000000000002</ele><time>2026-04-19T09:46:06.845Z</time></trkpt><trkpt lat="45.4966991" lon="9.106593"><ele>138.8</ele><time>2026-04-19T09:46:07.847Z</time></trkpt><trkpt lat="45.4968034" lon="9.1066015"><ele>137.4</ele><time>2026-04-19T09:46:08.847Z</time></trkpt><trkpt lat="45.4969051" lon="9.1066081"><ele>136.0</ele><time>2026-04-19T09:46:09.845Z</time></trkpt><trkpt lat="45.4970068" lon="9.1066133"><ele>136.0</ele><time>2026-04-19T09:46:10.846Z</time></trkpt><trkpt lat="45.4971031" lon="9.1066235"><ele>136.0</ele><time>2026-04-19T09:46:11.846Z</time></trkpt><trkpt lat="45.4971935" lon="9.1066451"><ele>136.0</ele><time>2026-04-19T09:46:12.846Z</time></trkpt><trkpt lat="45.4972709" lon="9.1066828"><ele>136.0</ele><time>2026-04-19T09:46:13.847Z</time></trkpt><trkpt lat="45.4973265" lon="9.1067488"><ele>136.0</ele><time>2026-04-19T09:46:14.846Z</time></trkpt><trkpt lat="45.497377" lon="9.1068196"><ele>136.0</ele><time>2026-04-19T09:46:15.846Z</time></trkpt><trkpt lat="45.4974532" lon="9.1069349"><ele>136.0</ele><time>2026-04-19T09:46:17.846Z</time></trkpt><trkpt lat="45.4975105" lon="9.107022"><ele>136.0</ele><time>2026-04-19T09:46:19.846Z</time></trkpt><trkpt lat="45.4975514" lon="9.1071313"><ele>136.0</ele><time>2026-04-19T09:46:21.845Z</time></trkpt><trkpt lat="45.4974969" lon="9.1072984"><ele>136.0</ele><time>2026-04-19T09:46:23.846Z</time></trkpt><trkpt lat="45.4974486" lon="9.1073914"><ele>136.0</ele><time>2026-04-19T09:46:24.846Z</time></trkpt><trkpt lat="45.4973995" lon="9.1074883"><ele>135.8</ele><time>2026-04-19T09:46:25.846Z</time></trkpt><trkpt lat="45.4973486" lon="9.1075978"><ele>135.6</ele><time>2026-04-19T09:46:26.845Z</time></trkpt><trkpt lat="45.4972848" lon="9.1077128"><ele>135.4</ele><time>2026-04-19T09:46:27.846Z</time></trkpt><trkpt lat="45.4972317" lon="9.1078205"><ele>135.2</ele><time>2026-04-19T09:46:28.846Z</time></trkpt><trkpt lat="45.497192" lon="9.1079224"><ele>135.0</ele><time>2026-04-19T09:46:29.845Z</time></trkpt><trkpt lat="45.4971517" lon="9.1080473"><ele>135.0</ele><time>2026-04-19T09:46:30.845Z</time></trkpt><trkpt lat="45.4971312" lon="9.1081716"><ele>135.0</ele><time>2026-04-19T09:46:31.845Z</time></trkpt><trkpt lat="45.4971278" lon="9.1083183"><ele>135.0</ele><time>2026-04-19T09:46:32.846Z</time></trkpt><trkpt lat="45.497127" lon="9.1084593"><ele>135.0</ele><time>2026-04-19T09:46:33.846Z</time></trkpt><trkpt lat="45.4971324" lon="9.1086008"><ele>135.0</ele><time>2026-04-19T09:46:34.846Z</time></trkpt><trkpt lat="45.4971507" lon="9.1087419"><ele>134.8</ele><time>2026-04-19T09:46:35.846Z</time></trkpt><trkpt lat="45.4971741" lon="9.1088828"><ele>134.6</ele><time>2026-04-19T09:46:36.845Z</time></trkpt><trkpt lat="45.4972032" lon="9.1090241"><ele>134.4</ele><time>2026-04-19T09:46:37.847Z</time></trkpt><trkpt lat="45.497232" lon="9.1091734"><ele>134.2</ele><time>2026-04-19T09:46:38.845Z</time></trkpt><trkpt lat="45.4972642" lon="9.1093221"><ele>134.0</ele><time>2026-04-19T09:46:39.847Z</time></trkpt><trkpt lat="45.4972939" lon="9.1094621"><ele>134.0</ele><time>2026-04-19T09:46:40.845Z</time></trkpt><trkpt lat="45.4973012" lon="9.1095836"><ele>134.0</ele><time>2026-04-19T09:46:41.845Z</time></trkpt><trkpt lat="45.4973133" lon="9.1097219"><ele>134.0</ele><time>2026-04-19T09:46:42.846Z</time></trkpt><trkpt lat="45.4973255" lon="9.1098561"><ele>134.0</ele><time>2026-04-19T09:46:43.847Z</time></trkpt><trkpt lat="45.4973289" lon="9.1100039"><ele>134.0</ele><time>2026-04-19T09:46:44.844Z</time></trkpt><trkpt lat="45.4973274" lon="9.1101493"><ele>134.0</ele><time>2026-04-19T09:46:45.846Z</time></trkpt><trkpt lat="45.4973176" lon="9.1102956"><ele>134.0</ele><time>2026-04-19T09:46:46.846Z</time></trkpt><trkpt lat="45.4973001" lon="9.1104245"><ele>134.0</ele><time>2026-04-19T09:46:47.846Z</time></trkpt><trkpt lat="45.497275" lon="9.1105395"><ele>134.0</ele><time>2026-04-19T09:46:48.846Z</time></trkpt><trkpt lat="45.4972447" lon="9.1106381"><ele>134.0</ele><time>2026-04-19T09:46:49.846Z</time></trkpt><trkpt lat="45.4971878" lon="9.1107694"><ele>133.83333333333331</ele><time>2026-04-19T09:46:51.846Z</time></trkpt><trkpt lat="45.4971038" lon="9.1108791"><ele>133.66666666666666</ele><time>2026-04-19T09:46:53.845Z</time></trkpt><trkpt lat="45.4970433" lon="9.1109303"><ele>133.5</ele><time>2026-04-19T09:46:54.845Z</time></trkpt><trkpt lat="45.4969796" lon="9.1109818"><ele>133.33333333333334</ele><time>2026-04-19T09:46:55.845Z</time></trkpt><trkpt lat="45.4969161" lon="9.1110366"><ele>133.16666666666669</ele><time>2026-04-19T09:46:56.847Z</time></trkpt><trkpt lat="45.4968634" lon="9.1110882"><ele>133.0</ele><time>2026-04-19T09:46:57.847Z</time></trkpt><trkpt lat="45.4968059" lon="9.1111338"><ele>133.0</ele><time>2026-04-19T09:46:58.846Z</time></trkpt><trkpt lat="45.4967149" lon="9.1111942"><ele>133.0</ele><time>2026-04-19T09:47:00.845Z</time></trkpt><trkpt lat="45.496637" lon="9.1112355"><ele>133.0</ele><time>2026-04-19T09:47:03.846Z</time></trkpt><trkpt lat="45.4965458" lon="9.1112813"><ele>133.0</ele><time>2026-04-19T09:47:09.846Z</time></trkpt><trkpt lat="45.4964448" lon="9.1113411"><ele>133.0</ele><time>2026-04-19T09:47:11.846Z</time></trkpt><trkpt lat="45.4963348" lon="9.1114219"><ele>133.0</ele><time>2026-04-19T09:47:13.846Z</time></trkpt><trkpt lat="45.4962679" lon="9.1114827"><ele>133.0</ele><time>2026-04-19T09:47:14.845Z</time></trkpt><trkpt lat="45.496202" lon="9.1115384"><ele>133.0</ele><time>2026-04-19T09:47:15.846Z</time></trkpt><trkpt lat="45.4961181" lon="9.1116224"><ele>133.0</ele><time>2026-04-19T09:47:16.845Z</time></trkpt><trkpt lat="45.496015" lon="9.111737"><ele>133.0</ele><time>2026-04-19T09:47:17.846Z</time></trkpt><trkpt lat="45.4959195" lon="9.1118551"><ele>133.0</ele><time>2026-04-19T09:47:18.845Z</time></trkpt><trkpt lat="45.4958376" lon="9.1119727"><ele>133.0</ele><time>2026-04-19T09:47:19.845Z</time></trkpt><trkpt lat="45.4957626" lon="9.1121064"><ele>133.0</ele><time>2026-04-19T09:47:20.846Z</time></trkpt><trkpt lat="45.4956858" lon="9.1122322"><ele>133.0</ele><time>2026-04-19T09:47:21.846Z</time></trkpt><trkpt lat="45.495612" lon="9.1123628"><ele>132.8</ele><time>2026-04-19T09:47:22.845Z</time></trkpt><trkpt lat="45.4955339" lon="9.1124838"><ele>132.60000000000002</ele><time>2026-04-19T09:47:23.845Z</time></trkpt><trkpt lat="45.4954568" lon="9.1125999"><ele>132.39999999999998</ele><time>2026-04-19T09:47:24.846Z</time></trkpt><trkpt lat="45.4953822" lon="9.1127167"><ele>132.2</ele><time>2026-04-19T09:47:25.846Z</time></trkpt><trkpt lat="45.495309" lon="9.1128331"><ele>132.0</ele><time>2026-04-19T09:47:26.846Z</time></trkpt><trkpt lat="45.4952409" lon="9.1129338"><ele>132.0</ele><time>2026-04-19T09:47:27.845Z</time></trkpt><trkpt lat="45.4951729" lon="9.1130523"><ele>132.0</ele><time>2026-04-19T09:47:28.846Z</time></trkpt><trkpt lat="45.4951072" lon="9.1131591"><ele>132.0</ele><time>2026-04-19T09:47:29.846Z</time></trkpt><trkpt lat="45.4950489" lon="9.1132564"><ele>132.0</ele><time>2026-04-19T09:47:30.847Z</time></trkpt><trkpt lat="45.4950011" lon="9.1133437"><ele>132.0</ele><time>2026-04-19T09:47:31.845Z</time></trkpt><trkpt lat="45.4949254" lon="9.113454"><ele>132.0</ele><time>2026-04-19T09:47:33.845Z</time></trkpt><trkpt lat="45.4948532" lon="9.113569"><ele>132.0</ele><time>2026-04-19T09:47:35.845Z</time></trkpt><trkpt lat="45.4947593" lon="9.1136863"><ele>132.0</ele><time>2026-04-19T09:47:37.845Z</time></trkpt><trkpt lat="45.494703" lon="9.1137684"><ele>132.0</ele><time>2026-04-19T09:47:38.845Z</time></trkpt><trkpt lat="45.4946419" lon="9.1138264"><ele>132.0</ele><time>2026-04-19T09:47:39.846Z</time></trkpt><trkpt lat="45.4945823" lon="9.1139195"><ele>132.0</ele><time>2026-04-19T09:47:40.846Z</time></trkpt><trkpt lat="45.4945177" lon="9.1140131"><ele>132.0</ele><time>2026-04-19T09:47:41.846Z</time></trkpt><trkpt lat="45.4944519" lon="9.1141161"><ele>132.0</ele><time>2026-04-19T09:47:42.845Z</time></trkpt><trkpt lat="45.4943869" lon="9.1142331"><ele>132.0</ele><time>2026-04-19T09:47:43.846Z</time></trkpt><trkpt lat="45.4943129" lon="9.1143569"><ele>132.0</ele><time>2026-04-19T09:47:44.845Z</time></trkpt><trkpt lat="45.4942399" lon="9.1144864"><ele>132.0</ele><time>2026-04-19T09:47:45.846Z</time></trkpt><trkpt lat="45.4941738" lon="9.1146134"><ele>132.0</ele><time>2026-04-19T09:47:46.846Z</time></trkpt><trkpt lat="45.4941137" lon="9.1147289"><ele>132.0</ele><time>2026-04-19T09:47:47.846Z</time></trkpt><trkpt lat="45.4940604" lon="9.1148349"><ele>132.0</ele><time>2026-04-19T09:47:48.846Z</time></trkpt><trkpt lat="45.4940167" lon="9.1149206"><ele>132.0</ele><time>2026-04-19T09:47:49.845Z</time></trkpt><trkpt lat="45.4939434" lon="9.1150438"><ele>132.0</ele><time>2026-04-19T09:47:51.846Z</time></trkpt><trkpt lat="45.4938889" lon="9.1151412"><ele>132.0</ele><time>2026-04-19T09:47:53.846Z</time></trkpt><trkpt lat="45.4938364" lon="9.1152375"><ele>132.0</ele><time>2026-04-19T09:47:56.846Z</time></trkpt><trkpt lat="45.4937762" lon="9.1153308"><ele>132.0</ele><time>2026-04-19T09:48:12.845Z</time></trkpt><trkpt lat="45.4937185" lon="9.115453"><ele>132.0</ele><time>2026-04-19T09:48:14.846Z</time></trkpt><trkpt lat="45.4937368" lon="9.1156271"><ele>132.0</ele><time>2026-04-19T09:48:16.846Z</time></trkpt><trkpt lat="45.4937761" lon="9.1157066"><ele>132.0</ele><time>2026-04-19T09:48:17.846Z</time></trkpt><trkpt lat="45.4938273" lon="9.1157743"><ele>132.0</ele><time>2026-04-19T09:48:18.846Z</time></trkpt><trkpt lat="45.4938875" lon="9.1158363"><ele>132.0</ele><time>2026-04-19T09:48:19.846Z</time></trkpt><trkpt lat="45.4939526" lon="9.1158957"><ele>132.0</ele><time>2026-04-19T09:48:20.845Z</time></trkpt><trkpt lat="45.4940215" lon="9.1159555"><ele>132.0</ele><time>2026-04-19T09:48:21.845Z</time></trkpt><trkpt lat="45.4940921" lon="9.1160191"><ele>132.0</ele><time>2026-04-19T09:48:22.846Z</time></trkpt><trkpt lat="45.4941727" lon="9.1160867"><ele>132.0</ele><time>2026-04-19T09:48:23.845Z</time></trkpt><trkpt lat="45.4942544" lon="9.1161605"><ele>132.0</ele><time>2026-04-19T09:48:24.845Z</time></trkpt><trkpt lat="45.4943268" lon="9.1162287"><ele>132.0</ele><time>2026-04-19T09:48:25.845Z</time></trkpt><trkpt lat="45.4944002" lon="9.1162945"><ele>132.0</ele><time>2026-04-19T09:48:26.846Z</time></trkpt><trkpt lat="45.4944739" lon="9.1163589"><ele>132.0</ele><time>2026-04-19T09:48:27.845Z</time></trkpt><trkpt lat="45.4945436" lon="9.1164232"><ele>132.0</ele><time>2026-04-19T09:48:28.845Z</time></trkpt><trkpt lat="45.4946124" lon="9.1164861"><ele>132.0</ele><time>2026-04-19T09:48:29.846Z</time></trkpt><trkpt lat="45.4946819" lon="9.1165468"><ele>132.0</ele><time>2026-04-19T09:48:30.846Z</time></trkpt><trkpt lat="45.4947524" lon="9.1166068"><ele>132.0</ele><time>2026-04-19T09:48:31.845Z</time></trkpt><trkpt lat="45.4948261" lon="9.1166713"><ele>132.0</ele><time>2026-04-19T09:48:32.847Z</time></trkpt><trkpt lat="45.494899" lon="9.1167388"><ele>131.5</ele><time>2026-04-19T09:48:33.846Z</time></trkpt><trkpt lat="45.4949766" lon="9.1168096"><ele>131.0</ele><time>2026-04-19T09:48:34.845Z</time></trkpt><trkpt lat="45.4950452" lon="9.1168737"><ele>130.5</ele><time>2026-04-19T09:48:35.845Z</time></trkpt><trkpt lat="45.4951076" lon="9.1169331"><ele>130.0</ele><time>2026-04-19T09:48:36.845Z</time></trkpt><trkpt lat="45.4951681" lon="9.1169887"><ele>129.5</ele><time>2026-04-19T09:48:37.845Z</time></trkpt><trkpt lat="45.4952286" lon="9.1170384"><ele>129.0</ele><time>2026-04-19T09:48:38.845Z</time></trkpt><trkpt lat="45.4952821" lon="9.1170872"><ele>129.0</ele><time>2026-04-19T09:48:39.846Z</time></trkpt><trkpt lat="45.495368" lon="9.1171584"><ele>129.0</ele><time>2026-04-19T09:48:41.846Z</time></trkpt><trkpt lat="45.4954186" lon="9.1172134"><ele>129.0</ele><time>2026-04-19T09:48:43.845Z</time></trkpt><trkpt lat="45.4954693" lon="9.1172791"><ele>129.0</ele><time>2026-04-19T09:48:45.845Z</time></trkpt><trkpt lat="45.4955099" lon="9.1173934"><ele>129.0</ele><time>2026-04-19T09:48:47.847Z</time></trkpt><trkpt lat="45.4954817" lon="9.1175466"><ele>129.0</ele><time>2026-04-19T09:48:49.845Z</time></trkpt><trkpt lat="45.4954511" lon="9.1176314"><ele>129.6</ele><time>2026-04-19T09:48:50.845Z</time></trkpt><trkpt lat="45.4954072" lon="9.1177295"><ele>130.2</ele><time>2026-04-19T09:48:51.846Z</time></trkpt><trkpt lat="45.4953529" lon="9.117842"><ele>130.79999999999998</ele><time>2026-04-19T09:48:52.845Z</time></trkpt><trkpt lat="45.495295" lon="9.1179668"><ele>131.4</ele><time>2026-04-19T09:48:53.846Z</time></trkpt><trkpt lat="45.4952386" lon="9.1180973"><ele>132.0</ele><time>2026-04-19T09:48:54.846Z</time></trkpt><trkpt lat="45.4951741" lon="9.1182265"><ele>132.5</ele><time>2026-04-19T09:48:55.845Z</time></trkpt><trkpt lat="45.4951213" lon="9.1183367"><ele>133.0</ele><time>2026-04-19T09:48:56.845Z</time></trkpt><trkpt lat="45.4950682" lon="9.1184588"><ele>133.5</ele><time>2026-04-19T09:48:57.846Z</time></trkpt><trkpt lat="45.4950262" lon="9.1185677"><ele>134.0</ele><time>2026-04-19T09:48:58.846Z</time></trkpt><trkpt lat="45.4949842" lon="9.1186687"><ele>134.5</ele><time>2026-04-19T09:48:59.846Z</time></trkpt><trkpt lat="45.4949517" lon="9.1187637"><ele>135.0</ele><time>2026-04-19T09:49:00.846Z</time></trkpt><trkpt lat="45.4949104" lon="9.1188606"><ele>135.0</ele><time>2026-04-19T09:49:01.846Z</time></trkpt><trkpt lat="45.4948737" lon="9.1189558"><ele>135.0</ele><time>2026-04-19T09:49:02.845Z</time></trkpt><trkpt lat="45.4948283" lon="9.1190473"><ele>135.0</ele><time>2026-04-19T09:49:03.845Z</time></trkpt><trkpt lat="45.4947833" lon="9.1191457"><ele>135.0</ele><time>2026-04-19T09:49:04.845Z</time></trkpt><trkpt lat="45.4947408" lon="9.1192469"><ele>135.0</ele><time>2026-04-19T09:49:05.846Z</time></trkpt><trkpt lat="45.494709" lon="9.119346"><ele>135.0</ele><time>2026-04-19T09:49:06.846Z</time></trkpt><trkpt lat="45.4946765" lon="9.119425"><ele>134.85714285714286</ele><time>2026-04-19T09:49:07.846Z</time></trkpt><trkpt lat="45.4946523" lon="9.1195097"><ele>134.7142857142857</ele><time>2026-04-19T09:49:08.845Z</time></trkpt><trkpt lat="45.4946194" lon="9.1195994"><ele>134.57142857142856</ele><time>2026-04-19T09:49:09.845Z</time></trkpt><trkpt lat="45.4945799" lon="9.1196993"><ele>134.42857142857142</ele><time>2026-04-19T09:49:10.845Z</time></trkpt><trkpt lat="45.4945522" lon="9.1197862"><ele>134.28571428571428</ele><time>2026-04-19T09:49:11.845Z</time></trkpt><trkpt lat="45.4945229" lon="9.1198801"><ele>134.14285714285714</ele><time>2026-04-19T09:49:12.846Z</time></trkpt><trkpt lat="45.4945008" lon="9.1199652"><ele>134.0</ele><time>2026-04-19T09:49:13.846Z</time></trkpt><trkpt lat="45.4944789" lon="9.1200659"><ele>133.5</ele><time>2026-04-19T09:49:14.845Z</time></trkpt><trkpt lat="45.4944503" lon="9.1201687"><ele>133.0</ele><time>2026-04-19T09:49:15.845Z</time></trkpt><trkpt lat="45.4944193" lon="9.1202646"><ele>132.5</ele><time>2026-04-19T09:49:16.845Z</time></trkpt><trkpt lat="45.4943928" lon="9.1203658"><ele>132.0</ele><time>2026-04-19T09:49:17.846Z</time></trkpt><trkpt lat="45.4943626" lon="9.1204747"><ele>131.5</ele><time>2026-04-19T09:49:18.845Z</time></trkpt><trkpt lat="45.4943404" lon="9.1205932"><ele>131.0</ele><time>2026-04-19T09:49:19.845Z</time></trkpt><trkpt lat="45.4943198" lon="9.1207253"><ele>131.6</ele><time>2026-04-19T09:49:20.846Z</time></trkpt><trkpt lat="45.494301" lon="9.1208635"><ele>132.2</ele><time>2026-04-19T09:49:21.845Z</time></trkpt><trkpt lat="45.4942763" lon="9.1209974"><ele>132.8</ele><time>2026-04-19T09:49:22.846Z</time></trkpt><trkpt lat="45.4942625" lon="9.1211305"><ele>133.4</ele><time>2026-04-19T09:49:23.845Z</time></trkpt><trkpt lat="45.4942463" lon="9.1212703"><ele>134.0</ele><time>2026-04-19T09:49:24.846Z</time></trkpt><trkpt lat="45.494235" lon="9.1214158"><ele>133.4</ele><time>2026-04-19T09:49:25.845Z</time></trkpt><trkpt lat="45.4942263" lon="9.1215663"><ele>132.8</ele><time>2026-04-19T09:49:26.845Z</time></trkpt><trkpt lat="45.494217" lon="9.1217163"><ele>132.2</ele><time>2026-04-19T09:49:27.846Z</time></trkpt><trkpt lat="45.4942149" lon="9.1218726"><ele>131.6</ele><time>2026-04-19T09:49:28.845Z</time></trkpt><trkpt lat="45.494208" lon="9.1220195"><ele>131.0</ele><time>2026-04-19T09:49:29.846Z</time></trkpt><trkpt lat="45.4942067" lon="9.1221657"><ele>131.0</ele><time>2026-04-19T09:49:30.846Z</time></trkpt><trkpt lat="45.4942138" lon="9.1223127"><ele>131.0</ele><time>2026-04-19T09:49:31.847Z</time></trkpt><trkpt lat="45.4942151" lon="9.1224686"><ele>131.0</ele><time>2026-04-19T09:49:32.846Z</time></trkpt><trkpt lat="45.4942249" lon="9.1226116"><ele>131.0</ele><time>2026-04-19T09:49:33.846Z</time></trkpt><trkpt lat="45.4942327" lon="9.1227678"><ele>131.0</ele><time>2026-04-19T09:49:34.846Z</time></trkpt><trkpt lat="45.4942293" lon="9.1229294"><ele>131.16666666666666</ele><time>2026-04-19T09:49:35.845Z</time></trkpt><trkpt lat="45.4942281" lon="9.1230708"><ele>131.33333333333331</ele><time>2026-04-19T09:49:36.846Z</time></trkpt><trkpt lat="45.4942268" lon="9.123216"><ele>131.5</ele><time>2026-04-19T09:49:37.845Z</time></trkpt><trkpt lat="45.494226" lon="9.1233481"><ele>131.66666666666666</ele><time>2026-04-19T09:49:38.846Z</time></trkpt><trkpt lat="45.494228" lon="9.123466"><ele>131.83333333333334</ele><time>2026-04-19T09:49:39.846Z</time></trkpt><trkpt lat="45.4942292" lon="9.1235634"><ele>132.0</ele><time>2026-04-19T09:49:40.846Z</time></trkpt><trkpt lat="45.494228" lon="9.1236551"><ele>132.0</ele><time>2026-04-19T09:49:41.846Z</time></trkpt><trkpt lat="45.4942318" lon="9.1237894"><ele>132.0</ele><time>2026-04-19T09:49:43.845Z</time></trkpt><trkpt lat="45.4942321" lon="9.1238859"><ele>132.0</ele><time>2026-04-19T09:49:45.845Z</time></trkpt><trkpt lat="45.494235" lon="9.1239986"><ele>132.0</ele><time>2026-04-19T09:49:52.846Z</time></trkpt><trkpt lat="45.4942974" lon="9.1240924"><ele>132.0</ele><time>2026-04-19T09:49:55.847Z</time></trkpt><trkpt lat="45.4944147" lon="9.1240914"><ele>132.0</ele><time>2026-04-19T09:49:57.845Z</time></trkpt><trkpt lat="45.494496" lon="9.1240693"><ele>132.0</ele><time>2026-04-19T09:49:58.846Z</time></trkpt><trkpt lat="45.494582" lon="9.124044"><ele>132.0</ele><time>2026-04-19T09:49:59.847Z</time></trkpt><trkpt lat="45.4946702" lon="9.1240163"><ele>132.0</ele><time>2026-04-19T09:50:00.845Z</time></trkpt><trkpt lat="45.4947579" lon="9.1239846"><ele>132.0</ele><time>2026-04-19T09:50:01.846Z</time></trkpt><trkpt lat="45.4948562" lon="9.1239581"><ele>132.0</ele><time>2026-04-19T09:50:02.846Z</time></trkpt><trkpt lat="45.4949539" lon="9.1239308"><ele>132.83333333333334</ele><time>2026-04-19T09:50:03.845Z</time></trkpt><trkpt lat="45.4950534" lon="9.1238986"><ele>133.66666666666666</ele><time>2026-04-19T09:50:04.845Z</time></trkpt><trkpt lat="45.4951427" lon="9.1238674"><ele>134.5</ele><time>2026-04-19T09:50:05.845Z</time></trkpt><trkpt lat="45.4952222" lon="9.1238345"><ele>135.33333333333331</ele><time>2026-04-19T09:50:06.845Z</time></trkpt><trkpt lat="45.4953003" lon="9.1237855"><ele>136.16666666666666</ele><time>2026-04-19T09:50:07.846Z</time></trkpt><trkpt lat="45.4953759" lon="9.1237333"><ele>137.0</ele><time>2026-04-19T09:50:08.846Z</time></trkpt><trkpt lat="45.4954523" lon="9.1236676"><ele>137.0</ele><time>2026-04-19T09:50:09.845Z</time></trkpt><trkpt lat="45.4955227" lon="9.1236012"><ele>137.0</ele><time>2026-04-19T09:50:10.845Z</time></trkpt><trkpt lat="45.4955966" lon="9.1235282"><ele>137.0</ele><time>2026-04-19T09:50:11.845Z</time></trkpt><trkpt lat="45.4956657" lon="9.1234482"><ele>137.0</ele><time>2026-04-19T09:50:12.845Z</time></trkpt><trkpt lat="45.4957254" lon="9.1233602"><ele>137.0</ele><time>2026-04-19T09:50:13.844Z</time></trkpt><trkpt lat="45.4957791" lon="9.1232606"><ele>137.0</ele><time>2026-04-19T09:50:14.846Z</time></trkpt><trkpt lat="45.4958252" lon="9.1231539"><ele>137.0</ele><time>2026-04-19T09:50:15.845Z</time></trkpt><trkpt lat="45.4958809" lon="9.1230438"><ele>137.0</ele><time>2026-04-19T09:50:16.844Z</time></trkpt><trkpt lat="45.4959316" lon="9.1229277"><ele>137.0</ele><time>2026-04-19T09:50:17.845Z</time></trkpt><trkpt lat="45.4959829" lon="9.1228098"><ele>137.0</ele><time>2026-04-19T09:50:18.846Z</time></trkpt><trkpt lat="45.4960344" lon="9.1226904"><ele>137.0</ele><time>2026-04-19T09:50:19.845Z</time></trkpt><trkpt lat="45.4960847" lon="9.1225664"><ele>137.0</ele><time>2026-04-19T09:50:20.845Z</time></trkpt><trkpt lat="45.496134" lon="9.1224419"><ele>137.0</ele><time>2026-04-19T09:50:21.845Z</time></trkpt><trkpt lat="45.4961796" lon="9.1223189"><ele>137.0</ele><time>2026-04-19T09:50:22.845Z</time></trkpt><trkpt lat="45.4962301" lon="9.1221934"><ele>137.0</ele><time>2026-04-19T09:50:23.845Z</time></trkpt><trkpt lat="45.4962769" lon="9.1220695"><ele>137.0</ele><time>2026-04-19T09:50:24.845Z</time></trkpt><trkpt lat="45.4963232" lon="9.1219421"><ele>137.0</ele><time>2026-04-19T09:50:25.845Z</time></trkpt><trkpt lat="45.4963728" lon="9.1218153"><ele>137.0</ele><time>2026-04-19T09:50:26.845Z</time></trkpt><trkpt lat="45.4964223" lon="9.1216934"><ele>137.0</ele><time>2026-04-19T09:50:27.845Z</time></trkpt><trkpt lat="45.4964675" lon="9.1215792"><ele>137.0</ele><time>2026-04-19T09:50:28.845Z</time></trkpt><trkpt lat="45.4965156" lon="9.1214677"><ele>137.0</ele><time>2026-04-19T09:50:29.845Z</time></trkpt><trkpt lat="45.4965608" lon="9.1213543"><ele>136.6</ele><time>2026-04-19T09:50:30.845Z</time></trkpt><trkpt lat="45.4966068" lon="9.1212375"><ele>136.2</ele><time>2026-04-19T09:50:31.845Z</time></trkpt><trkpt lat="45.4966544" lon="9.1211184"><ele>135.8</ele><time>2026-04-19T09:50:32.845Z</time></trkpt><trkpt lat="45.49671" lon="9.1209982"><ele>135.4</ele><time>2026-04-19T09:50:33.845Z</time></trkpt><trkpt lat="45.496765" lon="9.120871"><ele>135.0</ele><time>2026-04-19T09:50:34.845Z</time></trkpt><trkpt lat="45.4968253" lon="9.1207365"><ele>135.25</ele><time>2026-04-19T09:50:35.845Z</time></trkpt><trkpt lat="45.4968842" lon="9.120597"><ele>135.5</ele><time>2026-04-19T09:50:36.845Z</time></trkpt><trkpt lat="45.4969443" lon="9.1204507"><ele>135.75</ele><time>2026-04-19T09:50:37.845Z</time></trkpt><trkpt lat="45.4970098" lon="9.1202882"><ele>136.0</ele><time>2026-04-19T09:50:38.845Z</time></trkpt><trkpt lat="45.4970771" lon="9.1201177"><ele>135.75</ele><time>2026-04-19T09:50:39.845Z</time></trkpt><trkpt lat="45.497151" lon="9.1199352"><ele>135.5</ele><time>2026-04-19T09:50:40.846Z</time></trkpt><trkpt lat="45.497219" lon="9.1197581"><ele>135.25</ele><time>2026-04-19T09:50:41.846Z</time></trkpt><trkpt lat="45.497284" lon="9.1195901"><ele>135.0</ele><time>2026-04-19T09:50:42.845Z</time></trkpt><trkpt lat="45.4973439" lon="9.1194275"><ele>135.0</ele><time>2026-04-19T09:50:43.845Z</time></trkpt><trkpt lat="45.4974009" lon="9.1192801"><ele>135.0</ele><time>2026-04-19T09:50:44.845Z</time></trkpt><trkpt lat="45.4974425" lon="9.1191379"><ele>135.0</ele><time>2026-04-19T09:50:45.845Z</time></trkpt><trkpt lat="45.4974671" lon="9.118998"><ele>135.0</ele><time>2026-04-19T09:50:46.845Z</time></trkpt><trkpt lat="45.4974776" lon="9.1188569"><ele>135.0</ele><time>2026-04-19T09:50:47.845Z</time></trkpt><trkpt lat="45.4974756" lon="9.1187133"><ele>135.4</ele><time>2026-04-19T09:50:48.845Z</time></trkpt><trkpt lat="45.4974639" lon="9.1185689"><ele>135.8</ele><time>2026-04-19T09:50:49.845Z</time></trkpt><trkpt lat="45.4974451" lon="9.1184271"><ele>136.2</ele><time>2026-04-19T09:50:50.846Z</time></trkpt><trkpt lat="45.4974201" lon="9.1182792"><ele>136.6</ele><time>2026-04-19T09:50:51.845Z</time></trkpt><trkpt lat="45.4973957" lon="9.1181284"><ele>137.0</ele><time>2026-04-19T09:50:52.845Z</time></trkpt><trkpt lat="45.497373" lon="9.1179814"><ele>137.0</ele><time>2026-04-19T09:50:53.845Z</time></trkpt><trkpt lat="45.4973522" lon="9.1178399"><ele>137.0</ele><time>2026-04-19T09:50:54.845Z</time></trkpt><trkpt lat="45.4973326" lon="9.1177014"><ele>137.0</ele><time>2026-04-19T09:50:55.845Z</time></trkpt><trkpt lat="45.4973117" lon="9.1175682"><ele>137.0</ele><time>2026-04-19T09:50:56.845Z</time></trkpt><trkpt lat="45.4972914" lon="9.1174311"><ele>137.0</ele><time>2026-04-19T09:50:57.845Z</time></trkpt><trkpt lat="45.4972684" lon="9.1172947"><ele>137.2</ele><time>2026-04-19T09:50:58.845Z</time></trkpt><trkpt lat="45.4972463" lon="9.1171547"><ele>137.39999999999998</ele><time>2026-04-19T09:50:59.845Z</time></trkpt><trkpt lat="45.4972244" lon="9.1170158"><ele>137.60000000000002</ele><time>2026-04-19T09:51:00.845Z</time></trkpt><trkpt lat="45.4972042" lon="9.116874"><ele>137.8</ele><time>2026-04-19T09:51:01.845Z</time></trkpt><trkpt lat="45.497182" lon="9.1167313"><ele>138.0</ele><time>2026-04-19T09:51:02.845Z</time></trkpt><trkpt lat="45.4971632" lon="9.1165843"><ele>138.0</ele><time>2026-04-19T09:51:03.845Z</time></trkpt><trkpt lat="45.4971436" lon="9.1164375"><ele>138.0</ele><time>2026-04-19T09:51:04.845Z</time></trkpt><trkpt lat="45.4971215" lon="9.1162908"><ele>138.0</ele><time>2026-04-19T09:51:05.846Z</time></trkpt><trkpt lat="45.4971017" lon="9.1161495"><ele>138.0</ele><time>2026-04-19T09:51:06.845Z</time></trkpt><trkpt lat="45.4970823" lon="9.1160109"><ele>138.0</ele><time>2026-04-19T09:51:07.845Z</time></trkpt><trkpt lat="45.4970623" lon="9.115881"><ele>138.0</ele><time>2026-04-19T09:51:08.845Z</time></trkpt><trkpt lat="45.4970396" lon="9.1157582"><ele>138.0</ele><time>2026-04-19T09:51:09.845Z</time></trkpt><trkpt lat="45.4970181" lon="9.1156453"><ele>138.0</ele><time>2026-04-19T09:51:10.845Z</time></trkpt><trkpt lat="45.4969951" lon="9.1155377"><ele>138.0</ele><time>2026-04-19T09:51:11.845Z</time></trkpt><trkpt lat="45.4969515" lon="9.1154577"><ele>138.0</ele><time>2026-04-19T09:51:12.845Z</time></trkpt><trkpt lat="45.4969001" lon="9.1153931"><ele>138.0</ele><time>2026-04-19T09:51:13.845Z</time></trkpt><trkpt lat="45.4968067" lon="9.1153061"><ele>138.16666666666666</ele><time>2026-04-19T09:51:15.845Z</time></trkpt><trkpt lat="45.4967409" lon="9.115226"><ele>138.33333333333334</ele><time>2026-04-19T09:51:17.845Z</time></trkpt><trkpt lat="45.4966947" lon="9.1151567"><ele>138.5</ele><time>2026-04-19T09:51:20.845Z</time></trkpt><trkpt lat="45.4966709" lon="9.1150683"><ele>138.66666666666669</ele><time>2026-04-19T09:51:23.845Z</time></trkpt><trkpt lat="45.4967331" lon="9.114915"><ele>138.83333333333334</ele><time>2026-04-19T09:51:25.845Z</time></trkpt><trkpt lat="45.4967773" lon="9.1148206"><ele>139.0</ele><time>2026-04-19T09:51:26.853Z</time></trkpt><trkpt lat="45.4968235" lon="9.1147143"><ele>139.0</ele><time>2026-04-19T09:51:27.846Z</time></trkpt><trkpt lat="45.4968759" lon="9.114601"><ele>139.0</ele><time>2026-04-19T09:51:28.845Z</time></trkpt><trkpt lat="45.4969283" lon="9.1144754"><ele>139.0</ele><time>2026-04-19T09:51:29.845Z</time></trkpt><trkpt lat="45.496984" lon="9.1143502"><ele>139.0</ele><time>2026-04-19T09:51:30.845Z</time></trkpt><trkpt lat="45.4970355" lon="9.1142217"><ele>139.0</ele><time>2026-04-19T09:51:31.845Z</time></trkpt><trkpt lat="45.4970958" lon="9.1140991"><ele>138.5</ele><time>2026-04-19T09:51:32.846Z</time></trkpt><trkpt lat="45.497157" lon="9.1139719"><ele>138.0</ele><time>2026-04-19T09:51:33.846Z</time></trkpt><trkpt lat="45.4972249" lon="9.1138381"><ele>137.5</ele><time>2026-04-19T09:51:34.845Z</time></trkpt><trkpt lat="45.4972915" lon="9.1136954"><ele>137.0</ele><time>2026-04-19T09:51:35.845Z</time></trkpt><trkpt lat="45.4973568" lon="9.1135613"><ele>137.0</ele><time>2026-04-19T09:51:36.845Z</time></trkpt><trkpt lat="45.4974158" lon="9.1134321"><ele>137.0</ele><time>2026-04-19T09:51:37.846Z</time></trkpt><trkpt lat="45.4974759" lon="9.1133003"><ele>137.0</ele><time>2026-04-19T09:51:38.846Z</time></trkpt><trkpt lat="45.4975336" lon="9.1131688"><ele>137.0</ele><time>2026-04-19T09:51:39.846Z</time></trkpt><trkpt lat="45.4975895" lon="9.1130458"><ele>137.0</ele><time>2026-04-19T09:51:40.846Z</time></trkpt><trkpt lat="45.4976362" lon="9.1129238"><ele>136.83333333333331</ele><time>2026-04-19T09:51:41.845Z</time></trkpt><trkpt lat="45.4976856" lon="9.1128044"><ele>136.66666666666666</ele><time>2026-04-19T09:51:42.846Z</time></trkpt><trkpt lat="45.4977238" lon="9.1126968"><ele>136.5</ele><time>2026-04-19T09:51:43.845Z</time></trkpt><trkpt lat="45.4977715" lon="9.112599"><ele>136.33333333333334</ele><time>2026-04-19T09:51:44.846Z</time></trkpt><trkpt lat="45.4978131" lon="9.1125265"><ele>136.16666666666669</ele><time>2026-04-19T09:51:45.847Z</time></trkpt><trkpt lat="45.4978767" lon="9.1124056"><ele>136.0</ele><time>2026-04-19T09:51:47.845Z</time></trkpt><trkpt lat="45.4979406" lon="9.1123328"><ele>136.4</ele><time>2026-04-19T09:51:49.845Z</time></trkpt><trkpt lat="45.4980101" lon="9.1122845"><ele>136.8</ele><time>2026-04-19T09:51:53.845Z</time></trkpt><trkpt lat="45.4980886" lon="9.1122821"><ele>137.20000000000002</ele><time>2026-04-19T09:51:55.845Z</time></trkpt><trkpt lat="45.4981944" lon="9.1122844"><ele>137.6</ele><time>2026-04-19T09:51:57.845Z</time></trkpt><trkpt lat="45.4982783" lon="9.1122028"><ele>138.0</ele><time>2026-04-19T09:51:59.845Z</time></trkpt><trkpt lat="45.49831" lon="9.1120317"><ele>138.0</ele><time>2026-04-19T09:52:01.845Z</time></trkpt><trkpt lat="45.4983177" lon="9.1119274"><ele>138.0</ele><time>2026-04-19T09:52:02.845Z</time></trkpt><trkpt lat="45.4983432" lon="9.1118247"><ele>138.0</ele><time>2026-04-19T09:52:03.845Z</time></trkpt><trkpt lat="45.4983785" lon="9.1117175"><ele>138.0</ele><time>2026-04-19T09:52:04.846Z</time></trkpt><trkpt lat="45.4984219" lon="9.1116049"><ele>138.0</ele><time>2026-04-19T09:52:05.845Z</time></trkpt><trkpt lat="45.4984709" lon="9.1114889"><ele>138.0</ele><time>2026-04-19T09:52:06.846Z</time></trkpt><trkpt lat="45.4985245" lon="9.1113653"><ele>138.20000000000002</ele><time>2026-04-19T09:52:07.845Z</time></trkpt><trkpt lat="45.4985741" lon="9.1112427"><ele>138.4</ele><time>2026-04-19T09:52:08.847Z</time></trkpt><trkpt lat="45.4986213" lon="9.111112"><ele>138.60000000000002</ele><time>2026-04-19T09:52:09.846Z</time></trkpt><trkpt lat="45.4986786" lon="9.1109938"><ele>138.8</ele><time>2026-04-19T09:52:10.846Z</time></trkpt><trkpt lat="45.4987366" lon="9.1108758"><ele>139.0</ele><time>2026-04-19T09:52:11.846Z</time></trkpt><trkpt lat="45.498796" lon="9.1107704"><ele>138.0</ele><time>2026-04-19T09:52:12.846Z</time></trkpt><trkpt lat="45.4988523" lon="9.1106476"><ele>137.0</ele><time>2026-04-19T09:52:13.845Z</time></trkpt><trkpt lat="45.4989073" lon="9.11053"><ele>136.0</ele><time>2026-04-19T09:52:14.845Z</time></trkpt><trkpt lat="45.4989639" lon="9.1104045"><ele>135.0</ele><time>2026-04-19T09:52:15.845Z</time></trkpt><trkpt lat="45.499007" lon="9.1102811"><ele>134.0</ele><time>2026-04-19T09:52:16.845Z</time></trkpt><trkpt lat="45.4990748" lon="9.1101463"><ele>134.0</ele><time>2026-04-19T09:52:17.845Z</time></trkpt><trkpt lat="45.4991416" lon="9.1100027"><ele>134.0</ele><time>2026-04-19T09:52:18.845Z</time></trkpt><trkpt lat="45.499208" lon="9.109858"><ele>134.0</ele><time>2026-04-19T09:52:19.846Z</time></trkpt><trkpt lat="45.4992782" lon="9.109706"><ele>134.0</ele><time>2026-04-19T09:52:20.845Z</time></trkpt><trkpt lat="45.4993464" lon="9.10956"><ele>134.0</ele><time>2026-04-19T09:52:21.845Z</time></trkpt><trkpt lat="45.4994165" lon="9.1094139"><ele>134.0</ele><time>2026-04-19T09:52:22.845Z</time></trkpt><trkpt lat="45.4994789" lon="9.109274"><ele>134.0</ele><time>2026-04-19T09:52:23.846Z</time></trkpt><trkpt lat="45.4995419" lon="9.1091311"><ele>134.0</ele><time>2026-04-19T09:52:24.846Z</time></trkpt><trkpt lat="45.4995878" lon="9.1089972"><ele>134.2</ele><time>2026-04-19T09:52:25.845Z</time></trkpt><trkpt lat="45.4996333" lon="9.1088742"><ele>134.4</ele><time>2026-04-19T09:52:26.845Z</time></trkpt><trkpt lat="45.4996821" lon="9.1087487"><ele>134.6</ele><time>2026-04-19T09:52:27.846Z</time></trkpt><trkpt lat="45.4997391" lon="9.1086215"><ele>134.8</ele><time>2026-04-19T09:52:28.846Z</time></trkpt><trkpt lat="45.499796" lon="9.1084877"><ele>135.0</ele><time>2026-04-19T09:52:29.846Z</time></trkpt><trkpt lat="45.4998495" lon="9.1083625"><ele>135.0</ele><time>2026-04-19T09:52:30.845Z</time></trkpt><trkpt lat="45.499904" lon="9.1082478"><ele>135.0</ele><time>2026-04-19T09:52:31.845Z</time></trkpt><trkpt lat="45.4999531" lon="9.1081375"><ele>135.0</ele><time>2026-04-19T09:52:32.846Z</time></trkpt><trkpt lat="45.5000052" lon="9.1080351"><ele>135.0</ele><time>2026-04-19T09:52:33.846Z</time></trkpt><trkpt lat="45.5000516" lon="9.1079325"><ele>135.0</ele><time>2026-04-19T09:52:34.845Z</time></trkpt><trkpt lat="45.5000805" lon="9.1078372"><ele>135.0</ele><time>2026-04-19T09:52:35.846Z</time></trkpt><trkpt lat="45.5001191" lon="9.1077614"><ele>135.16666666666666</ele><time>2026-04-19T09:52:36.846Z</time></trkpt><trkpt lat="45.5001467" lon="9.1076165"><ele>135.33333333333334</ele><time>2026-04-19T09:52:38.847Z</time></trkpt><trkpt lat="45.5000897" lon="9.1074959"><ele>135.5</ele><time>2026-04-19T09:52:40.845Z</time></trkpt><trkpt lat="45.5000269" lon="9.1074687"><ele>135.66666666666669</ele><time>2026-04-19T09:52:41.845Z</time></trkpt><trkpt lat="45.4999618" lon="9.1074546"><ele>135.83333333333334</ele><time>2026-04-19T09:52:42.846Z</time></trkpt><trkpt lat="45.4998895" lon="9.1074533"><ele>136.0</ele><time>2026-04-19T09:52:43.845Z</time></trkpt><trkpt lat="45.4998151" lon="9.1074504"><ele>136.0</ele><time>2026-04-19T09:52:44.845Z</time></trkpt><trkpt lat="45.499736" lon="9.1074398"><ele>136.0</ele><time>2026-04-19T09:52:45.845Z</time></trkpt><trkpt lat="45.499671" lon="9.1074365"><ele>136.0</ele><time>2026-04-19T09:52:46.846Z</time></trkpt><trkpt lat="45.4996036" lon="9.1074376"><ele>136.0</ele><time>2026-04-19T09:52:47.845Z</time></trkpt><trkpt lat="45.499535" lon="9.1074431"><ele>136.0</ele><time>2026-04-19T09:52:48.845Z</time></trkpt><trkpt lat="45.4994401" lon="9.1074568"><ele>136.0</ele><time>2026-04-19T09:52:50.845Z</time></trkpt><trkpt lat="45.4993346" lon="9.1074384"><ele>137.0</ele><time>2026-04-19T09:52:52.845Z</time></trkpt><trkpt lat="45.4992568" lon="9.1073522"><ele>138.0</ele><time>2026-04-19T09:52:54.846Z</time></trkpt><trkpt lat="45.4992146" lon="9.1072061"><ele>139.0</ele><time>2026-04-19T09:52:56.845Z</time></trkpt><trkpt lat="45.4992094" lon="9.1070509"><ele>140.0</ele><time>2026-04-19T09:52:58.846Z</time></trkpt><trkpt lat="45.4992163" lon="9.1068844"><ele>141.0</ele><time>2026-04-19T09:53:00.845Z</time></trkpt><trkpt lat="45.4992323" lon="9.1067169"><ele>141.0</ele><time>2026-04-19T09:53:02.845Z</time></trkpt><trkpt lat="45.4992427" lon="9.1066257"><ele>141.0</ele><time>2026-04-19T09:53:03.846Z</time></trkpt><trkpt lat="45.4992552" lon="9.106527"><ele>141.0</ele><time>2026-04-19T09:53:04.845Z</time></trkpt><trkpt lat="45.499266" lon="9.1064339"><ele>141.0</ele><time>2026-04-19T09:53:05.845Z</time></trkpt><trkpt lat="45.4992824" lon="9.1063394"><ele>141.0</ele><time>2026-04-19T09:53:06.846Z</time></trkpt><trkpt lat="45.4992984" lon="9.1062425"><ele>141.0</ele><time>2026-04-19T09:53:07.845Z</time></trkpt><trkpt lat="45.4993181" lon="9.1061407"><ele>141.0</ele><time>2026-04-19T09:53:08.846Z</time></trkpt><trkpt lat="45.4993409" lon="9.1060242"><ele>141.0</ele><time>2026-04-19T09:53:09.845Z</time></trkpt><trkpt lat="45.4993772" lon="9.1059032"><ele>141.0</ele><time>2026-04-19T09:53:10.845Z</time></trkpt><trkpt lat="45.4994102" lon="9.1057862"><ele>141.0</ele><time>2026-04-19T09:53:11.845Z</time></trkpt><trkpt lat="45.4994384" lon="9.1056903"><ele>141.0</ele><time>2026-04-19T09:53:12.845Z</time></trkpt><trkpt lat="45.4994701" lon="9.105586"><ele>141.0</ele><time>2026-04-19T09:53:13.846Z</time></trkpt><trkpt lat="45.4995071" lon="9.1054811"><ele>141.0</ele><time>2026-04-19T09:53:14.845Z</time></trkpt><trkpt lat="45.4995426" lon="9.1053852"><ele>141.5</ele><time>2026-04-19T09:53:15.846Z</time></trkpt><trkpt lat="45.499573" lon="9.1052848"><ele>142.0</ele><time>2026-04-19T09:53:16.846Z</time></trkpt><trkpt lat="45.499603" lon="9.1051787"><ele>142.5</ele><time>2026-04-19T09:53:17.846Z</time></trkpt><trkpt lat="45.4996419" lon="9.105065"><ele>143.0</ele><time>2026-04-19T09:53:18.845Z</time></trkpt><trkpt lat="45.4996793" lon="9.1049646"><ele>143.5</ele><time>2026-04-19T09:53:19.845Z</time></trkpt><trkpt lat="45.4997187" lon="9.1048597"><ele>144.0</ele><time>2026-04-19T09:53:20.845Z</time></trkpt><trkpt lat="45.4997579" lon="9.104744"><ele>144.0</ele><time>2026-04-19T09:53:21.845Z</time></trkpt><trkpt lat="45.4997934" lon="9.104636"><ele>144.0</ele><time>2026-04-19T09:53:22.845Z</time></trkpt><trkpt lat="45.4998291" lon="9.1045259"><ele>144.0</ele><time>2026-04-19T09:53:23.845Z</time></trkpt><trkpt lat="45.4998632" lon="9.104418"><ele>144.0</ele><time>2026-04-19T09:53:24.845Z</time></trkpt><trkpt lat="45.499897" lon="9.1043089"><ele>144.0</ele><time>2026-04-19T09:53:25.845Z</time></trkpt><trkpt lat="45.4999322" lon="9.1042021"><ele>144.0</ele><time>2026-04-19T09:53:26.845Z</time></trkpt><trkpt lat="45.4999739" lon="9.1040784"><ele>144.0</ele><time>2026-04-19T09:53:27.845Z</time></trkpt><trkpt lat="45.500012" lon="9.1039585"><ele>144.0</ele><time>2026-04-19T09:53:28.846Z</time></trkpt><trkpt lat="45.5000465" lon="9.1038441"><ele>144.0</ele><time>2026-04-19T09:53:29.846Z</time></trkpt><trkpt lat="45.5000807" lon="9.1037408"><ele>144.0</ele><time>2026-04-19T09:53:30.845Z</time></trkpt><trkpt lat="45.5001223" lon="9.103637"><ele>144.0</ele><time>2026-04-19T09:53:31.845Z</time></trkpt><trkpt lat="45.5001622" lon="9.1035313"><ele>144.0</ele><time>2026-04-19T09:53:32.845Z</time></trkpt><trkpt lat="45.5002123" lon="9.1034306"><ele>144.0</ele><time>2026-04-19T09:53:33.845Z</time></trkpt><trkpt lat="45.5002684" lon="9.1033325"><ele>144.0</ele><time>2026-04-19T09:53:34.845Z</time></trkpt><trkpt lat="45.500324" lon="9.103234"><ele>144.0</ele><time>2026-04-19T09:53:35.846Z</time></trkpt><trkpt lat="45.5003878" lon="9.1031413"><ele>144.0</ele><time>2026-04-19T09:53:36.845Z</time></trkpt><trkpt lat="45.5004545" lon="9.1030539"><ele>144.0</ele><time>2026-04-19T09:53:37.846Z</time></trkpt><trkpt lat="45.5005204" lon="9.1029692"><ele>144.0</ele><time>2026-04-19T09:53:38.846Z</time></trkpt><trkpt lat="45.5005861" lon="9.1028684"><ele>143.16666666666666</ele><time>2026-04-19T09:53:39.846Z</time></trkpt><trkpt lat="45.5006468" lon="9.1027827"><ele>142.33333333333334</ele><time>2026-04-19T09:53:40.845Z</time></trkpt><trkpt lat="45.5007148" lon="9.1026954"><ele>141.5</ele><time>2026-04-19T09:53:41.845Z</time></trkpt><trkpt lat="45.5007814" lon="9.1026133"><ele>140.66666666666669</ele><time>2026-04-19T09:53:42.845Z</time></trkpt><trkpt lat="45.5008425" lon="9.1025183"><ele>139.83333333333334</ele><time>2026-04-19T09:53:43.846Z</time></trkpt><trkpt lat="45.5009011" lon="9.1024301"><ele>139.0</ele><time>2026-04-19T09:53:44.847Z</time></trkpt><trkpt lat="45.5009639" lon="9.1023429"><ele>138.83333333333334</ele><time>2026-04-19T09:53:45.846Z</time></trkpt><trkpt lat="45.5010289" lon="9.1022552"><ele>138.66666666666669</ele><time>2026-04-19T09:53:46.845Z</time></trkpt><trkpt lat="45.5010753" lon="9.1021825"><ele>138.5</ele><time>2026-04-19T09:53:47.851Z</time></trkpt><trkpt lat="45.5011384" lon="9.102092"><ele>138.33333333333334</ele><time>2026-04-19T09:53:48.851Z</time></trkpt><trkpt lat="45.5011879" lon="9.1020271"><ele>138.16666666666666</ele><time>2026-04-19T09:53:49.851Z</time></trkpt><trkpt lat="45.5012724" lon="9.101924"><ele>138.0</ele><time>2026-04-19T09:53:51.846Z</time></trkpt><trkpt lat="45.5013677" lon="9.101851"><ele>138.0</ele><time>2026-04-19T09:53:53.845Z</time></trkpt><trkpt lat="45.5014516" lon="9.1018245"><ele>138.0</ele><time>2026-04-19T09:53:55.845Z</time></trkpt><trkpt lat="45.5015417" lon="9.1017634"><ele>138.0</ele><time>2026-04-19T09:53:57.846Z</time></trkpt><trkpt lat="45.5016126" lon="9.1016608"><ele>138.0</ele><time>2026-04-19T09:53:59.846Z</time></trkpt><trkpt lat="45.5017096" lon="9.10154"><ele>138.0</ele><time>2026-04-19T09:54:01.845Z</time></trkpt><trkpt lat="45.5017625" lon="9.1014672"><ele>138.33333333333334</ele><time>2026-04-19T09:54:02.846Z</time></trkpt><trkpt lat="45.5018395" lon="9.1013216"><ele>138.66666666666666</ele><time>2026-04-19T09:54:04.845Z</time></trkpt><trkpt lat="45.5018808" lon="9.1012262"><ele>139.0</ele><time>2026-04-19T09:54:05.846Z</time></trkpt><trkpt lat="45.5019327" lon="9.1011388"><ele>139.33333333333331</ele><time>2026-04-19T09:54:06.846Z</time></trkpt><trkpt lat="45.5019876" lon="9.1010564"><ele>139.66666666666666</ele><time>2026-04-19T09:54:07.846Z</time></trkpt><trkpt lat="45.5020446" lon="9.100979"><ele>140.0</ele><time>2026-04-19T09:54:08.846Z</time></trkpt><trkpt lat="45.5020989" lon="9.1008966"><ele>140.16666666666666</ele><time>2026-04-19T09:54:09.846Z</time></trkpt><trkpt lat="45.5021537" lon="9.1008113"><ele>140.33333333333331</ele><time>2026-04-19T09:54:10.846Z</time></trkpt><trkpt lat="45.5022091" lon="9.1007257"><ele>140.5</ele><time>2026-04-19T09:54:11.847Z</time></trkpt><trkpt lat="45.5022637" lon="9.1006428"><ele>140.66666666666666</ele><time>2026-04-19T09:54:12.846Z</time></trkpt><trkpt lat="45.5023203" lon="9.1005602"><ele>140.83333333333334</ele><time>2026-04-19T09:54:13.846Z</time></trkpt><trkpt lat="45.5023697" lon="9.1004823"><ele>141.0</ele><time>2026-04-19T09:54:14.846Z</time></trkpt><trkpt lat="45.5024166" lon="9.1004102"><ele>140.25</ele><time>2026-04-19T09:54:15.846Z</time></trkpt><trkpt lat="45.5025015" lon="9.1002921"><ele>139.5</ele><time>2026-04-19T09:54:17.846Z</time></trkpt><trkpt lat="45.5025961" lon="9.1002244"><ele>138.75</ele><time>2026-04-19T09:54:19.845Z</time></trkpt><trkpt lat="45.5026977" lon="9.1001596"><ele>138.0</ele><time>2026-04-19T09:54:21.846Z</time></trkpt><trkpt lat="45.5027536" lon="9.0999994"><ele>137.66666666666666</ele><time>2026-04-19T09:54:23.846Z</time></trkpt><trkpt lat="45.5027847" lon="9.0998986"><ele>137.33333333333334</ele><time>2026-04-19T09:54:24.845Z</time></trkpt><trkpt lat="45.5028271" lon="9.0998121"><ele>137.0</ele><time>2026-04-19T09:54:25.846Z</time></trkpt><trkpt lat="45.5028833" lon="9.0997184"><ele>136.66666666666669</ele><time>2026-04-19T09:54:26.845Z</time></trkpt><trkpt lat="45.5029365" lon="9.099629"><ele>136.33333333333334</ele><time>2026-04-19T09:54:27.845Z</time></trkpt><trkpt lat="45.5029949" lon="9.0995404"><ele>136.0</ele><time>2026-04-19T09:54:28.845Z</time></trkpt><trkpt lat="45.5030485" lon="9.0994637"><ele>136.0</ele><time>2026-04-19T09:54:29.845Z</time></trkpt><trkpt lat="45.5031224" lon="9.0993355"><ele>136.0</ele><time>2026-04-19T09:54:31.845Z</time></trkpt><trkpt lat="45.5031948" lon="9.0992517"><ele>136.0</ele><time>2026-04-19T09:54:33.845Z</time></trkpt><trkpt lat="45.5032604" lon="9.0991716"><ele>136.0</ele><time>2026-04-19T09:54:36.845Z</time></trkpt><trkpt lat="45.503315" lon="9.0991059"><ele>136.0</ele><time>2026-04-19T09:54:38.845Z</time></trkpt><trkpt lat="45.5033661" lon="9.0990436"><ele>136.0</ele><time>2026-04-19T09:54:40.845Z</time></trkpt><trkpt lat="45.5034086" lon="9.0989733"><ele>136.0</ele><time>2026-04-19T09:54:50.845Z</time></trkpt><trkpt lat="45.5034456" lon="9.0988752"><ele>136.0</ele><time>2026-04-19T09:54:54.845Z</time></trkpt><trkpt lat="45.5034683" lon="9.0987878"><ele>136.0</ele><time>2026-04-19T09:54:57.845Z</time></trkpt><trkpt lat="45.5034057" lon="9.0988039"><ele>136.0</ele><time>2026-04-19T09:55:00.846Z</time></trkpt><trkpt lat="45.5033334" lon="9.0989179"><ele>136.0</ele><time>2026-04-19T09:55:02.846Z</time></trkpt><trkpt lat="45.503283" lon="9.0989888"><ele>136.0</ele><time>2026-04-19T09:55:03.845Z</time></trkpt><trkpt lat="45.5032271" lon="9.099068"><ele>136.0</ele><time>2026-04-19T09:55:04.846Z</time></trkpt><trkpt lat="45.5031663" lon="9.0991536"><ele>136.0</ele><time>2026-04-19T09:55:05.845Z</time></trkpt><trkpt lat="45.5031029" lon="9.0992433"><ele>136.0</ele><time>2026-04-19T09:55:06.845Z</time></trkpt><trkpt lat="45.5030483" lon="9.0993161"><ele>136.0</ele><time>2026-04-19T09:55:07.846Z</time></trkpt><trkpt lat="45.5029927" lon="9.0993928"><ele>136.0</ele><time>2026-04-19T09:55:08.847Z</time></trkpt><trkpt lat="45.5029367" lon="9.0994719"><ele>136.0</ele><time>2026-04-19T09:55:09.846Z</time></trkpt><trkpt lat="45.5028858" lon="9.0995509"><ele>135.8</ele><time>2026-04-19T09:55:10.845Z</time></trkpt><trkpt lat="45.5028137" lon="9.0996919"><ele>135.6</ele><time>2026-04-19T09:55:12.845Z</time></trkpt><trkpt lat="45.5027694" lon="9.0997711"><ele>135.4</ele><time>2026-04-19T09:55:13.845Z</time></trkpt><trkpt lat="45.502684" lon="9.099896"><ele>135.2</ele><time>2026-04-19T09:55:15.845Z</time></trkpt><trkpt lat="45.5026193" lon="9.1000103"><ele>135.0</ele><time>2026-04-19T09:55:17.845Z</time></trkpt><trkpt lat="45.5026411" lon="9.1001369"><ele>135.33333333333334</ele><time>2026-04-19T09:55:19.846Z</time></trkpt><trkpt lat="45.5027479" lon="9.1002392"><ele>135.66666666666666</ele><time>2026-04-19T09:55:21.845Z</time></trkpt><trkpt lat="45.5028057" lon="9.1003072"><ele>136.0</ele><time>2026-04-19T09:55:22.845Z</time></trkpt><trkpt lat="45.5028604" lon="9.1003753"><ele>136.33333333333331</ele><time>2026-04-19T09:55:23.846Z</time></trkpt><trkpt lat="45.5029144" lon="9.1004491"><ele>136.66666666666666</ele><time>2026-04-19T09:55:24.846Z</time></trkpt><trkpt lat="45.5029703" lon="9.1005258"><ele>137.0</ele><time>2026-04-19T09:55:25.845Z</time></trkpt><trkpt lat="45.5030245" lon="9.1005993"><ele>137.0</ele><time>2026-04-19T09:55:26.845Z</time></trkpt><trkpt lat="45.5030705" lon="9.1006756"><ele>137.0</ele><time>2026-04-19T09:55:27.846Z</time></trkpt><trkpt lat="45.5031051" lon="9.1007605"><ele>137.0</ele><time>2026-04-19T09:55:28.845Z</time></trkpt><trkpt lat="45.5031367" lon="9.1008634"><ele>137.0</ele><time>2026-04-19T09:55:29.845Z</time></trkpt><trkpt lat="45.5031547" lon="9.1009754"><ele>137.0</ele><time>2026-04-19T09:55:30.845Z</time></trkpt><trkpt lat="45.503156" lon="9.1011018"><ele>137.0</ele><time>2026-04-19T09:55:31.846Z</time></trkpt><trkpt lat="45.5031414" lon="9.1012076"><ele>137.0</ele><time>2026-04-19T09:55:32.846Z</time></trkpt><trkpt lat="45.5031424" lon="9.1013283"><ele>137.0</ele><time>2026-04-19T09:55:33.845Z</time></trkpt><trkpt lat="45.5031672" lon="9.1014328"><ele>137.0</ele><time>2026-04-19T09:55:34.846Z</time></trkpt><trkpt lat="45.5031569" lon="9.1015363"><ele>137.0</ele><time>2026-04-19T09:55:35.847Z</time></trkpt><trkpt lat="45.5031705" lon="9.1016499"><ele>137.0</ele><time>2026-04-19T09:55:36.845Z</time></trkpt><trkpt lat="45.503177" lon="9.101763"><ele>137.0</ele><time>2026-04-19T09:55:37.845Z</time></trkpt><trkpt lat="45.5031864" lon="9.1018662"><ele>137.0</ele><time>2026-04-19T09:55:38.847Z</time></trkpt><trkpt lat="45.503198" lon="9.1019716"><ele>137.0</ele><time>2026-04-19T09:55:39.845Z</time></trkpt><trkpt lat="45.5032071" lon="9.1020771"><ele>137.0</ele><time>2026-04-19T09:55:40.845Z</time></trkpt><trkpt lat="45.5032163" lon="9.1021914"><ele>137.0</ele><time>2026-04-19T09:55:41.845Z</time></trkpt><trkpt lat="45.5032283" lon="9.1023938"><ele>137.0</ele><time>2026-04-19T09:55:43.846Z</time></trkpt><trkpt lat="45.5032411" lon="9.1025054"><ele>137.16666666666666</ele><time>2026-04-19T09:55:44.845Z</time></trkpt><trkpt lat="45.5032497" lon="9.1026179"><ele>137.33333333333331</ele><time>2026-04-19T09:55:45.845Z</time></trkpt><trkpt lat="45.5032585" lon="9.102729"><ele>137.5</ele><time>2026-04-19T09:55:46.846Z</time></trkpt><trkpt lat="45.5032549" lon="9.1028718"><ele>137.66666666666666</ele><time>2026-04-19T09:55:47.845Z</time></trkpt><trkpt lat="45.5032643" lon="9.1029706"><ele>137.83333333333334</ele><time>2026-04-19T09:55:48.846Z</time></trkpt><trkpt lat="45.5032747" lon="9.103075"><ele>138.0</ele><time>2026-04-19T09:55:49.846Z</time></trkpt><trkpt lat="45.5032807" lon="9.1031787"><ele>138.33333333333334</ele><time>2026-04-19T09:55:50.846Z</time></trkpt><trkpt lat="45.5032948" lon="9.1032844"><ele>138.66666666666666</ele><time>2026-04-19T09:55:51.846Z</time></trkpt><trkpt lat="45.5033132" lon="9.1033909"><ele>139.0</ele><time>2026-04-19T09:55:52.846Z</time></trkpt><trkpt lat="45.5033437" lon="9.1034941"><ele>139.33333333333331</ele><time>2026-04-19T09:55:53.847Z</time></trkpt><trkpt lat="45.5033834" lon="9.1035863"><ele>139.66666666666666</ele><time>2026-04-19T09:55:54.846Z</time></trkpt><trkpt lat="45.5034341" lon="9.1036763"><ele>140.0</ele><time>2026-04-19T09:55:55.846Z</time></trkpt><trkpt lat="45.5034882" lon="9.1037621"><ele>140.0</ele><time>2026-04-19T09:55:56.846Z</time></trkpt><trkpt lat="45.5035409" lon="9.1038362"><ele>140.0</ele><time>2026-04-19T09:55:57.846Z</time></trkpt><trkpt lat="45.5035852" lon="9.1039042"><ele>140.0</ele><time>2026-04-19T09:55:58.846Z</time></trkpt><trkpt lat="45.5036532" lon="9.1040036"><ele>140.0</ele><time>2026-04-19T09:56:00.845Z</time></trkpt><trkpt lat="45.5037109" lon="9.1040777"><ele>140.0</ele><time>2026-04-19T09:56:02.845Z</time></trkpt><trkpt lat="45.5037716" lon="9.1041713"><ele>140.0</ele><time>2026-04-19T09:56:05.845Z</time></trkpt><trkpt lat="45.5038633" lon="9.1042085"><ele>139.66666666666666</ele><time>2026-04-19T09:56:30.845Z</time></trkpt><trkpt lat="45.5039589" lon="9.1041797"><ele>139.33333333333331</ele><time>2026-04-19T09:56:32.845Z</time></trkpt><trkpt lat="45.5040372" lon="9.1041102"><ele>139.0</ele><time>2026-04-19T09:56:34.845Z</time></trkpt><trkpt lat="45.504089" lon="9.1040522"><ele>138.66666666666666</ele><time>2026-04-19T09:56:35.847Z</time></trkpt><trkpt lat="45.5041402" lon="9.1039812"><ele>138.33333333333334</ele><time>2026-04-19T09:56:36.845Z</time></trkpt><trkpt lat="45.5042002" lon="9.1039017"><ele>138.0</ele><time>2026-04-19T09:56:37.845Z</time></trkpt><trkpt lat="45.5042622" lon="9.1038237"><ele>138.0</ele><time>2026-04-19T09:56:38.845Z</time></trkpt><trkpt lat="45.5043247" lon="9.1037408"><ele>138.0</ele><time>2026-04-19T09:56:39.845Z</time></trkpt><trkpt lat="45.5043656" lon="9.1036639"><ele>138.0</ele><time>2026-04-19T09:56:40.845Z</time></trkpt><trkpt lat="45.5044324" lon="9.1035666"><ele>138.0</ele><time>2026-04-19T09:56:41.845Z</time></trkpt><trkpt lat="45.5044996" lon="9.1034623"><ele>138.0</ele><time>2026-04-19T09:56:42.845Z</time></trkpt><trkpt lat="45.5045611" lon="9.1033559"><ele>138.0</ele><time>2026-04-19T09:56:43.845Z</time></trkpt><trkpt lat="45.5046204" lon="9.1032525"><ele>137.8</ele><time>2026-04-19T09:56:44.845Z</time></trkpt><trkpt lat="45.5046823" lon="9.1031464"><ele>137.60000000000002</ele><time>2026-04-19T09:56:45.846Z</time></trkpt><trkpt lat="45.5047464" lon="9.1030429"><ele>137.39999999999998</ele><time>2026-04-19T09:56:46.846Z</time></trkpt><trkpt lat="45.5048128" lon="9.10293"><ele>137.2</ele><time>2026-04-19T09:56:47.845Z</time></trkpt><trkpt lat="45.5048667" lon="9.1028115"><ele>137.0</ele><time>2026-04-19T09:56:48.846Z</time></trkpt><trkpt lat="45.5049097" lon="9.1027005"><ele>137.0</ele><time>2026-04-19T09:56:49.845Z</time></trkpt><trkpt lat="45.5049533" lon="9.1025961"><ele>137.0</ele><time>2026-04-19T09:56:50.845Z</time></trkpt><trkpt lat="45.5049938" lon="9.1024923"><ele>137.0</ele><time>2026-04-19T09:56:51.845Z</time></trkpt><trkpt lat="45.5050284" lon="9.1023862"><ele>137.0</ele><time>2026-04-19T09:56:52.845Z</time></trkpt><trkpt lat="45.5050589" lon="9.1022705"><ele>137.0</ele><time>2026-04-19T09:56:53.845Z</time></trkpt><trkpt lat="45.5050951" lon="9.1021611"><ele>137.0</ele><time>2026-04-19T09:56:54.845Z</time></trkpt><trkpt lat="45.5051198" lon="9.1020492"><ele>137.33333333333331</ele><time>2026-04-19T09:56:55.846Z</time></trkpt><trkpt lat="45.5051588" lon="9.1019413"><ele>137.66666666666666</ele><time>2026-04-19T09:56:56.846Z</time></trkpt><trkpt lat="45.5051977" lon="9.1018294"><ele>138.0</ele><time>2026-04-19T09:56:57.846Z</time></trkpt><trkpt lat="45.5052378" lon="9.1017109"><ele>138.33333333333334</ele><time>2026-04-19T09:56:58.845Z</time></trkpt><trkpt lat="45.5052716" lon="9.1015914"><ele>138.66666666666669</ele><time>2026-04-19T09:56:59.846Z</time></trkpt><trkpt lat="45.5053047" lon="9.1014756"><ele>139.0</ele><time>2026-04-19T09:57:00.845Z</time></trkpt><trkpt lat="45.5053337" lon="9.101359"><ele>139.2</ele><time>2026-04-19T09:57:01.845Z</time></trkpt><trkpt lat="45.5053624" lon="9.101237"><ele>139.4</ele><time>2026-04-19T09:57:02.846Z</time></trkpt><trkpt lat="45.5053972" lon="9.101105"><ele>139.6</ele><time>2026-04-19T09:57:03.846Z</time></trkpt><trkpt lat="45.505432" lon="9.1009676"><ele>139.8</ele><time>2026-04-19T09:57:04.846Z</time></trkpt><trkpt lat="45.5054637" lon="9.1008267"><ele>140.0</ele><time>2026-04-19T09:57:05.845Z</time></trkpt><trkpt lat="45.5054938" lon="9.100692"><ele>139.6</ele><time>2026-04-19T09:57:06.846Z</time></trkpt><trkpt lat="45.5055257" lon="9.1005431"><ele>139.2</ele><time>2026-04-19T09:57:07.845Z</time></trkpt><trkpt lat="45.5055513" lon="9.100397"><ele>138.8</ele><time>2026-04-19T09:57:08.845Z</time></trkpt><trkpt lat="45.5055805" lon="9.1002579"><ele>138.4</ele><time>2026-04-19T09:57:09.845Z</time></trkpt><trkpt lat="45.505607" lon="9.1001149"><ele>138.0</ele><time>2026-04-19T09:57:10.845Z</time></trkpt><trkpt lat="45.5056344" lon="9.0999709"><ele>138.20000000000002</ele><time>2026-04-19T09:57:11.845Z</time></trkpt><trkpt lat="45.5056608" lon="9.0998293"><ele>138.4</ele><time>2026-04-19T09:57:12.845Z</time></trkpt><trkpt lat="45.5056854" lon="9.0996799"><ele>138.60000000000002</ele><time>2026-04-19T09:57:13.845Z</time></trkpt><trkpt lat="45.5057104" lon="9.099525"><ele>138.8</ele><time>2026-04-19T09:57:14.845Z</time></trkpt><trkpt lat="45.5057397" lon="9.0993635"><ele>139.0</ele><time>2026-04-19T09:57:15.847Z</time></trkpt><trkpt lat="45.505767" lon="9.0992088"><ele>139.2</ele><time>2026-04-19T09:57:16.845Z</time></trkpt><trkpt lat="45.5057925" lon="9.0990666"><ele>139.4</ele><time>2026-04-19T09:57:17.845Z</time></trkpt><trkpt lat="45.5058178" lon="9.0989428"><ele>139.6</ele><time>2026-04-19T09:57:18.845Z</time></trkpt><trkpt lat="45.5058406" lon="9.0988044"><ele>139.8</ele><time>2026-04-19T09:57:19.846Z</time></trkpt><trkpt lat="45.5058702" lon="9.098655"><ele>140.0</ele><time>2026-04-19T09:57:20.846Z</time></trkpt><trkpt lat="45.5058968" lon="9.098535"><ele>140.0</ele><time>2026-04-19T09:57:21.845Z</time></trkpt><trkpt lat="45.5059119" lon="9.0984164"><ele>140.0</ele><time>2026-04-19T09:57:22.845Z</time></trkpt><trkpt lat="45.5059369" lon="9.0982817"><ele>140.0</ele><time>2026-04-19T09:57:23.845Z</time></trkpt><trkpt lat="45.5059506" lon="9.098148"><ele>140.0</ele><time>2026-04-19T09:57:24.846Z</time></trkpt><trkpt lat="45.5059633" lon="9.0980119"><ele>140.0</ele><time>2026-04-19T09:57:25.846Z</time></trkpt><trkpt lat="45.5059772" lon="9.0978855"><ele>140.16666666666666</ele><time>2026-04-19T09:57:26.846Z</time></trkpt><trkpt lat="45.505989" lon="9.0977829"><ele>140.33333333333331</ele><time>2026-04-19T09:57:27.845Z</time></trkpt><trkpt lat="45.505998" lon="9.0976918"><ele>140.5</ele><time>2026-04-19T09:57:28.845Z</time></trkpt><trkpt lat="45.506016" lon="9.0975965"><ele>140.66666666666666</ele><time>2026-04-19T09:57:30.845Z</time></trkpt><trkpt lat="45.5060483" lon="9.0975147"><ele>140.83333333333334</ele><time>2026-04-19T09:57:36.845Z</time></trkpt><trkpt lat="45.5061146" lon="9.0974171"><ele>141.0</ele><time>2026-04-19T09:57:39.846Z</time></trkpt><trkpt lat="45.5061446" lon="9.0972871"><ele>141.0</ele><time>2026-04-19T09:57:41.845Z</time></trkpt><trkpt lat="45.5060968" lon="9.0971405"><ele>141.0</ele><time>2026-04-19T09:57:43.845Z</time></trkpt><trkpt lat="45.5060431" lon="9.0970581"><ele>141.0</ele><time>2026-04-19T09:57:44.845Z</time></trkpt><trkpt lat="45.5059957" lon="9.0969719"><ele>141.0</ele><time>2026-04-19T09:57:45.846Z</time></trkpt><trkpt lat="45.5059411" lon="9.0968659"><ele>141.0</ele><time>2026-04-19T09:57:46.846Z</time></trkpt><trkpt lat="45.505889" lon="9.0967544"><ele>141.0</ele><time>2026-04-19T09:57:47.845Z</time></trkpt><trkpt lat="45.5058326" lon="9.0966391"><ele>141.0</ele><time>2026-04-19T09:57:48.845Z</time></trkpt><trkpt lat="45.5057716" lon="9.0965244"><ele>141.0</ele><time>2026-04-19T09:57:49.846Z</time></trkpt><trkpt lat="45.5057063" lon="9.0964143"><ele>141.0</ele><time>2026-04-19T09:57:50.845Z</time></trkpt><trkpt lat="45.505633" lon="9.0963119"><ele>141.0</ele><time>2026-04-19T09:57:51.845Z</time></trkpt><trkpt lat="45.505555" lon="9.0962205"><ele>140.8</ele><time>2026-04-19T09:57:52.845Z</time></trkpt><trkpt lat="45.5054748" lon="9.0961416"><ele>140.6</ele><time>2026-04-19T09:57:53.846Z</time></trkpt><trkpt lat="45.5053895" lon="9.0960675"><ele>140.4</ele><time>2026-04-19T09:57:54.846Z</time></trkpt><trkpt lat="45.5053112" lon="9.0959945"><ele>140.2</ele><time>2026-04-19T09:57:55.845Z</time></trkpt><trkpt lat="45.5052372" lon="9.0959242"><ele>140.0</ele><time>2026-04-19T09:57:56.845Z</time></trkpt><trkpt lat="45.5051711" lon="9.0958594"><ele>140.0</ele><time>2026-04-19T09:57:57.846Z</time></trkpt><trkpt lat="45.505115" lon="9.0957974"><ele>140.0</ele><time>2026-04-19T09:57:58.846Z</time></trkpt><trkpt lat="45.5050666" lon="9.0957397"><ele>140.0</ele><time>2026-04-19T09:57:59.846Z</time></trkpt><trkpt lat="45.5049816" lon="9.0956268"><ele>140.0</ele><time>2026-04-19T09:58:01.845Z</time></trkpt><trkpt lat="45.5049301" lon="9.0954805"><ele>140.0</ele><time>2026-04-19T09:58:03.845Z</time></trkpt><trkpt lat="45.5048598" lon="9.0953524"><ele>140.0</ele><time>2026-04-19T09:58:05.845Z</time></trkpt><trkpt lat="45.5047244" lon="9.0953358"><ele>140.0</ele><time>2026-04-19T09:58:07.844Z</time></trkpt><trkpt lat="45.504639" lon="9.0953299"><ele>140.0</ele><time>2026-04-19T09:58:08.846Z</time></trkpt><trkpt lat="45.5045532" lon="9.0953084"><ele>140.0</ele><time>2026-04-19T09:58:09.846Z</time></trkpt><trkpt lat="45.5044675" lon="9.0952774"><ele>140.0</ele><time>2026-04-19T09:58:10.845Z</time></trkpt><trkpt lat="45.5043784" lon="9.0952327"><ele>140.0</ele><time>2026-04-19T09:58:11.845Z</time></trkpt><trkpt lat="45.5042876" lon="9.0951761"><ele>140.0</ele><time>2026-04-19T09:58:12.845Z</time></trkpt><trkpt lat="45.5042037" lon="9.0951183"><ele>140.0</ele><time>2026-04-19T09:58:13.846Z</time></trkpt><trkpt lat="45.5041214" lon="9.0950606"><ele>140.0</ele><time>2026-04-19T09:58:14.845Z</time></trkpt><trkpt lat="45.5040357" lon="9.094998"><ele>140.0</ele><time>2026-04-19T09:58:15.846Z</time></trkpt><trkpt lat="45.5039512" lon="9.0949374"><ele>139.83333333333331</ele><time>2026-04-19T09:58:16.845Z</time></trkpt><trkpt lat="45.5038703" lon="9.0948779"><ele>139.66666666666666</ele><time>2026-04-19T09:58:17.845Z</time></trkpt><trkpt lat="45.5037954" lon="9.0948251"><ele>139.5</ele><time>2026-04-19T09:58:18.846Z</time></trkpt><trkpt lat="45.5037157" lon="9.0947678"><ele>139.33333333333334</ele><time>2026-04-19T09:58:19.845Z</time></trkpt><trkpt lat="45.5036335" lon="9.0947078"><ele>139.16666666666669</ele><time>2026-04-19T09:58:20.845Z</time></trkpt><trkpt lat="45.5035525" lon="9.0946455"><ele>139.0</ele><time>2026-04-19T09:58:21.845Z</time></trkpt><trkpt lat="45.5034709" lon="9.0945859"><ele>139.0</ele><time>2026-04-19T09:58:22.845Z</time></trkpt><trkpt lat="45.5033878" lon="9.0945185"><ele>139.0</ele><time>2026-04-19T09:58:23.845Z</time></trkpt><trkpt lat="45.5033017" lon="9.0944627"><ele>139.0</ele><time>2026-04-19T09:58:24.845Z</time></trkpt><trkpt lat="45.5032103" lon="9.0944115"><ele>139.0</ele><time>2026-04-19T09:58:25.845Z</time></trkpt><trkpt lat="45.503113" lon="9.0943723"><ele>139.0</ele><time>2026-04-19T09:58:26.845Z</time></trkpt><trkpt lat="45.5030209" lon="9.0943315"><ele>139.0</ele><time>2026-04-19T09:58:27.845Z</time></trkpt><trkpt lat="45.5029291" lon="9.0943016"><ele>139.0</ele><time>2026-04-19T09:58:28.845Z</time></trkpt><trkpt lat="45.5028374" lon="9.0942884"><ele>139.0</ele><time>2026-04-19T09:58:29.845Z</time></trkpt><trkpt lat="45.5027491" lon="9.0942744"><ele>139.0</ele><time>2026-04-19T09:58:30.845Z</time></trkpt><trkpt lat="45.5026525" lon="9.0942849"><ele>139.0</ele><time>2026-04-19T09:58:31.845Z</time></trkpt><trkpt lat="45.502564" lon="9.0942974"><ele>138.83333333333334</ele><time>2026-04-19T09:58:32.846Z</time></trkpt><trkpt lat="45.5024789" lon="9.0943215"><ele>138.66666666666669</ele><time>2026-04-19T09:58:33.845Z</time></trkpt><trkpt lat="45.5023917" lon="9.0943505"><ele>138.5</ele><time>2026-04-19T09:58:34.845Z</time></trkpt><trkpt lat="45.5023089" lon="9.0943847"><ele>138.33333333333334</ele><time>2026-04-19T09:58:35.845Z</time></trkpt><trkpt lat="45.5022411" lon="9.0944184"><ele>138.16666666666666</ele><time>2026-04-19T09:58:36.845Z</time></trkpt><trkpt lat="45.5021478" lon="9.0944842"><ele>138.0</ele><time>2026-04-19T09:58:38.845Z</time></trkpt><trkpt lat="45.502069" lon="9.0944652"><ele>137.0</ele><time>2026-04-19T09:58:41.845Z</time></trkpt><trkpt lat="45.502043" lon="9.0943721"><ele>137.0</ele><time>2026-04-19T09:58:43.845Z</time></trkpt><trkpt lat="45.5020158" lon="9.0942808"><ele>137.0</ele><time>2026-04-19T09:58:45.846Z</time></trkpt><trkpt lat="45.5019583" lon="9.0942426"><ele>137.0</ele><time>2026-04-19T09:58:47.845Z</time></trkpt></trkseg></trk></gpx>